<?xml version='1.0' encoding='UTF-8'?><gpx version="1.1" creator="JPX - https://github.com/jenetics/jpx" xmlns="http://www.topografix.com/GPX/1/1"><trk><trkseg><trkpt lat="44.01487684835791" lon="8.18289037833603"><ele>11.0</ele><time>2026-04-12T08:18:58Z</time></trkpt><trkpt lat="44.01486845297301" lon="8.182982082043607"><ele>11.0</ele><time>2026-04-12T08:19:02Z</time></trkpt><trkpt lat="44.01490292928056" lon="8.183066802073444"><ele>11.0</ele><time>2026-04-12T08:19:07Z</time></trkpt><trkpt lat="44.014951071239025" lon="8.183135453419634"><ele>11.0</ele><time>2026-04-12T08:19:12Z</time></trkpt><trkpt lat="44.01500480439152" lon="8.183198411518648"><ele>11.0</ele><time>2026-04-12T08:19:18Z</time></trkpt><trkpt lat="44.0150684857998" lon="8.1831843239653"><ele>11.0</ele><time>2026-04-12T08:21:25Z</time></trkpt><trkpt lat="44.01505452004316" lon="8.183082919655966"><ele>11.0</ele><time>2026-04-12T08:21:33Z</time></trkpt><trkpt lat="44.01503763980763" lon="8.182997922647658"><ele>11.0</ele><time>2026-04-12T08:21:37Z</time></trkpt><trkpt lat="44.015008634144955" lon="8.18291412111468"><ele>11.0</ele><time>2026-04-12T08:21:41Z</time></trkpt><trkpt lat="44.01498127035536" lon="8.182806014420336"><ele>11.0</ele><time>2026-04-12T08:21:46.999Z</time></trkpt><trkpt lat="44.014964070551194" lon="8.182709287621961"><ele>11.0</ele><time>2026-04-12T08:21:51.999Z</time></trkpt><trkpt lat="44.01493936520876" lon="8.18262446188449"><ele>11.0</ele><time>2026-04-12T08:21:56.999Z</time></trkpt><trkpt lat="44.014958098982106" lon="8.182538988107352"><ele>11.0</ele><time>2026-04-12T08:22:00.999Z</time></trkpt><trkpt lat="44.015001454126256" lon="8.18261732080892"><ele>11.0</ele><time>2026-04-12T08:22:05.999Z</time></trkpt><trkpt lat="44.01502269723888" lon="8.182708746242069"><ele>13.0</ele><time>2026-04-12T08:22:12.999Z</time></trkpt><trkpt lat="44.015068710542415" lon="8.182777561505594"><ele>15.0</ele><time>2026-04-12T08:22:17.999Z</time></trkpt><trkpt lat="44.01513249136141" lon="8.182826936442847"><ele>17.0</ele><time>2026-04-12T08:22:21.999Z</time></trkpt><trkpt lat="44.01519208735208" lon="8.18287720078742"><ele>19.0</ele><time>2026-04-12T08:22:26.999Z</time></trkpt><trkpt lat="44.015256489928" lon="8.182929122646382"><ele>21.0</ele><time>2026-04-12T08:22:31.999Z</time></trkpt><trkpt lat="44.01532090399769" lon="8.182962388120412"><ele>23.000000000000004</ele><time>2026-04-12T08:22:35.999Z</time></trkpt><trkpt lat="44.015366370524035" lon="8.183032777950185"><ele>25.0</ele><time>2026-04-12T08:22:39.999Z</time></trkpt><trkpt lat="44.01541812675949" lon="8.183101907678937"><ele>25.000000000000004</ele><time>2026-04-12T08:22:43.999Z</time></trkpt><trkpt lat="44.0154881786298" lon="8.18313628505928"><ele>25.0</ele><time>2026-04-12T08:22:48.999Z</time></trkpt><trkpt lat="44.01554559421454" lon="8.183220828311743"><ele>25.0</ele><time>2026-04-12T08:22:54.999Z</time></trkpt><trkpt lat="44.01560342342791" lon="8.18326524787478"><ele>25.0</ele><time>2026-04-12T08:23:00Z</time></trkpt><trkpt lat="44.01566297894505" lon="8.183335660575333"><ele>25.0</ele><time>2026-04-12T08:23:05Z</time></trkpt><trkpt lat="44.01570190111792" lon="8.18340498682002"><ele>25.000000000000004</ele><time>2026-04-12T08:23:10Z</time></trkpt><trkpt lat="44.015742343481094" lon="8.183482040490121"><ele>25.0</ele><time>2026-04-12T08:23:14Z</time></trkpt><trkpt lat="44.015783169420544" lon="8.183549758417636"><ele>26.28571428571429</ele><time>2026-04-12T08:23:19Z</time></trkpt><trkpt lat="44.01583243526782" lon="8.183608861210033"><ele>27.57142857142857</ele><time>2026-04-12T08:23:24Z</time></trkpt><trkpt lat="44.01587621311536" lon="8.183701934763121"><ele>28.857142857142854</ele><time>2026-04-12T08:23:28Z</time></trkpt><trkpt lat="44.015902839370796" lon="8.183786371849564"><ele>30.142857142857142</ele><time>2026-04-12T08:23:33Z</time></trkpt><trkpt lat="44.015925057755496" lon="8.18388000957685"><ele>31.428571428571427</ele><time>2026-04-12T08:23:38Z</time></trkpt><trkpt lat="44.01594201735198" lon="8.183964569735988"><ele>32.71428571428571</ele><time>2026-04-12T08:23:42Z</time></trkpt><trkpt lat="44.01597284990968" lon="8.184041391260205"><ele>34.0</ele><time>2026-04-12T08:23:46Z</time></trkpt><trkpt lat="44.01601191559778" lon="8.184129768886017"><ele>33.99999999999999</ele><time>2026-04-12T08:23:51Z</time></trkpt><trkpt lat="44.01604100787592" lon="8.18421444365252"><ele>34.0</ele><time>2026-04-12T08:23:56Z</time></trkpt><trkpt lat="44.01607134505952" lon="8.184304591721185"><ele>34.0</ele><time>2026-04-12T08:24:01Z</time></trkpt><trkpt lat="44.01609560748221" lon="8.184406674885826"><ele>34.0</ele><time>2026-04-12T08:24:06Z</time></trkpt><trkpt lat="44.01613581682847" lon="8.18448937517218"><ele>34.0</ele><time>2026-04-12T08:24:10Z</time></trkpt><trkpt lat="44.016154457400056" lon="8.184573191601697"><ele>33.99999999999999</ele><time>2026-04-12T08:24:16Z</time></trkpt><trkpt lat="44.01616426814533" lon="8.184677192015307"><ele>34.0</ele><time>2026-04-12T08:24:21Z</time></trkpt><trkpt lat="44.01618834240704" lon="8.184763291938742"><ele>33.14285714285714</ele><time>2026-04-12T08:24:26Z</time></trkpt><trkpt lat="44.01620173584213" lon="8.184855535036721"><ele>32.285714285714285</ele><time>2026-04-12T08:24:30Z</time></trkpt><trkpt lat="44.016227669499166" lon="8.184942524898275"><ele>31.428571428571427</ele><time>2026-04-12T08:24:35Z</time></trkpt><trkpt lat="44.0162314985855" lon="8.185050647954997"><ele>30.57142857142857</ele><time>2026-04-12T08:24:41Z</time></trkpt><trkpt lat="44.016252648481554" lon="8.185152582143564"><ele>29.714285714285715</ele><time>2026-04-12T08:24:46Z</time></trkpt><trkpt lat="44.01626754360102" lon="8.185256313133463"><ele>28.857142857142858</ele><time>2026-04-12T08:24:51Z</time></trkpt><trkpt lat="44.016294334318715" lon="8.185351808173543"><ele>28.0</ele><time>2026-04-12T08:24:57Z</time></trkpt><trkpt lat="44.01629674753135" lon="8.185441533833329"><ele>28.0</ele><time>2026-04-12T08:25:02Z</time></trkpt><trkpt lat="44.01631314595422" lon="8.185546692596915"><ele>28.0</ele><time>2026-04-12T08:25:07Z</time></trkpt><trkpt lat="44.01632467608904" lon="8.185645256393295"><ele>28.0</ele><time>2026-04-12T08:25:12Z</time></trkpt><trkpt lat="44.016366042924055" lon="8.185730075996803"><ele>28.0</ele><time>2026-04-12T08:25:17Z</time></trkpt><trkpt lat="44.01639755303133" lon="8.185817888510599"><ele>28.0</ele><time>2026-04-12T08:25:22Z</time></trkpt><trkpt lat="44.01642820879354" lon="8.185905569983262"><ele>28.0</ele><time>2026-04-12T08:25:27Z</time></trkpt><trkpt lat="44.01645602093689" lon="8.186002184350453"><ele>28.0</ele><time>2026-04-12T08:25:32Z</time></trkpt><trkpt lat="44.01647741942256" lon="8.18610220706471"><ele>27.714285714285715</ele><time>2026-04-12T08:25:37Z</time></trkpt><trkpt lat="44.01649853125992" lon="8.186187677155923"><ele>27.42857142857143</ele><time>2026-04-12T08:25:41Z</time></trkpt><trkpt lat="44.01651954236101" lon="8.1862824693744"><ele>27.142857142857142</ele><time>2026-04-12T08:25:46Z</time></trkpt><trkpt lat="44.01654020188147" lon="8.186384611020586"><ele>26.857142857142858</ele><time>2026-04-12T08:25:51Z</time></trkpt><trkpt lat="44.01655707506299" lon="8.186486064857911"><ele>26.571428571428573</ele><time>2026-04-12T08:25:56Z</time></trkpt><trkpt lat="44.0165772218721" lon="8.18658148088596"><ele>26.285714285714285</ele><time>2026-04-12T08:26:01Z</time></trkpt><trkpt lat="44.01660230112739" lon="8.186666992493462"><ele>26.0</ele><time>2026-04-12T08:26:06Z</time></trkpt><trkpt lat="44.01664518635014" lon="8.186763322623813"><ele>32.0</ele><time>2026-04-12T08:26:12Z</time></trkpt><trkpt lat="44.01671085422233" lon="8.186779934132588"><ele>38.0</ele><time>2026-04-12T08:26:17Z</time></trkpt><trkpt lat="44.016765723061724" lon="8.186827977133332"><ele>44.0</ele><time>2026-04-12T08:26:22Z</time></trkpt><trkpt lat="44.016823248042094" lon="8.18688679993588"><ele>50.0</ele><time>2026-04-12T08:26:27Z</time></trkpt><trkpt lat="44.016877570840315" lon="8.186959583405924"><ele>56.0</ele><time>2026-04-12T08:26:32Z</time></trkpt><trkpt lat="44.016943660021056" lon="8.187004519859626"><ele>61.99999999999999</ele><time>2026-04-12T08:26:37Z</time></trkpt><trkpt lat="44.01699414666688" lon="8.187075269791466"><ele>68.0</ele><time>2026-04-12T08:26:42.001Z</time></trkpt><trkpt lat="44.01704775313551" lon="8.187124519857408"><ele>67.99999999999999</ele><time>2026-04-12T08:26:46Z</time></trkpt><trkpt lat="44.01710699664094" lon="8.187188107898054"><ele>68.0</ele><time>2026-04-12T08:26:51Z</time></trkpt><trkpt lat="44.01716786589064" lon="8.187213174939677"><ele>68.0</ele><time>2026-04-12T08:26:56Z</time></trkpt><trkpt lat="44.017221468768085" lon="8.187270416331383"><ele>68.0</ele><time>2026-04-12T08:27:00Z</time></trkpt><trkpt lat="44.017234772032864" lon="8.187362524838361"><ele>68.0</ele><time>2026-04-12T08:27:04Z</time></trkpt><trkpt lat="44.01721826403539" lon="8.187458785636167"><ele>67.99999999999999</ele><time>2026-04-12T08:27:09Z</time></trkpt><trkpt lat="44.017173690943714" lon="8.187538028081056"><ele>68.0</ele><time>2026-04-12T08:27:14Z</time></trkpt><trkpt lat="44.01713498633387" lon="8.187615767989971"><ele>66.57142857142857</ele><time>2026-04-12T08:27:19Z</time></trkpt><trkpt lat="44.0171174410581" lon="8.187707178842432"><ele>65.14285714285714</ele><time>2026-04-12T08:27:24Z</time></trkpt><trkpt lat="44.017083059785136" lon="8.18780174854911"><ele>63.714285714285715</ele><time>2026-04-12T08:27:30Z</time></trkpt><trkpt lat="44.01708259572975" lon="8.18790337833801"><ele>62.285714285714285</ele><time>2026-04-12T08:27:35Z</time></trkpt><trkpt lat="44.01706724563655" lon="8.187989030294332"><ele>60.85714285714286</ele><time>2026-04-12T08:27:39Z</time></trkpt><trkpt lat="44.017073440197954" lon="8.188086005637052"><ele>59.42857142857144</ele><time>2026-04-12T08:27:44Z</time></trkpt><trkpt lat="44.017129388611416" lon="8.188146036685408"><ele>58.00000000000001</ele><time>2026-04-12T08:27:49Z</time></trkpt><trkpt lat="44.01717454921865" lon="8.188209821551144"><ele>57.42857142857144</ele><time>2026-04-12T08:27:54Z</time></trkpt><trkpt lat="44.0172229986274" lon="8.188280699324386"><ele>56.85714285714286</ele><time>2026-04-12T08:27:58Z</time></trkpt><trkpt lat="44.0172590158504" lon="8.188365938580626"><ele>56.28571428571429</ele><time>2026-04-12T08:28:03Z</time></trkpt><trkpt lat="44.017295171134" lon="8.188446209617023"><ele>55.71428571428572</ele><time>2026-04-12T08:28:08Z</time></trkpt><trkpt lat="44.0173537995549" lon="8.188509101748247"><ele>55.14285714285714</ele><time>2026-04-12T08:28:13Z</time></trkpt><trkpt lat="44.01739134276282" lon="8.188594245108153"><ele>54.57142857142857</ele><time>2026-04-12T08:28:18Z</time></trkpt><trkpt lat="44.017456263548944" lon="8.18864939591039"><ele>54.0</ele><time>2026-04-12T08:28:23Z</time></trkpt><trkpt lat="44.017509986831826" lon="8.188710066943168"><ele>59.285714285714285</ele><time>2026-04-12T08:28:28Z</time></trkpt><trkpt lat="44.017532468306946" lon="8.188806736413985"><ele>64.57142857142857</ele><time>2026-04-12T08:28:33Z</time></trkpt><trkpt lat="44.017535880714746" lon="8.188897188056876"><ele>69.85714285714286</ele><time>2026-04-12T08:28:38Z</time></trkpt><trkpt lat="44.01753571930324" lon="8.189015268675476"><ele>75.14285714285714</ele><time>2026-04-12T08:28:43Z</time></trkpt><trkpt lat="44.01753111725281" lon="8.189106249827434"><ele>80.42857142857143</ele><time>2026-04-12T08:28:48Z</time></trkpt><trkpt lat="44.01753012376869" lon="8.18920564242241"><ele>85.71428571428571</ele><time>2026-04-12T08:28:53Z</time></trkpt><trkpt lat="44.01752712686843" lon="8.18930441298733"><ele>91.0</ele><time>2026-04-12T08:28:58Z</time></trkpt><trkpt lat="44.01750756262856" lon="8.189391875513962"><ele>91.0</ele><time>2026-04-12T08:29:02Z</time></trkpt><trkpt lat="44.01752989429208" lon="8.189495790502646"><ele>91.0</ele><time>2026-04-12T08:29:07Z</time></trkpt><trkpt lat="44.01753465035626" lon="8.189594520461595"><ele>91.0</ele><time>2026-04-12T08:29:13Z</time></trkpt><trkpt lat="44.01752372513944" lon="8.189695894732424"><ele>91.0</ele><time>2026-04-12T08:29:18Z</time></trkpt><trkpt lat="44.01752264846588" lon="8.189804202322431"><ele>91.0</ele><time>2026-04-12T08:29:24Z</time></trkpt><trkpt lat="44.01753498130827" lon="8.189904125588466"><ele>91.0</ele><time>2026-04-12T08:29:29Z</time></trkpt><trkpt lat="44.017527868977176" lon="8.190005821145029"><ele>91.0</ele><time>2026-04-12T08:29:34Z</time></trkpt><trkpt lat="44.01751121080267" lon="8.190097854636232"><ele>91.0</ele><time>2026-04-12T08:29:39Z</time></trkpt><trkpt lat="44.0174965764117" lon="8.190184759910272"><ele>91.0</ele><time>2026-04-12T08:29:43Z</time></trkpt><trkpt lat="44.017548386440744" lon="8.190237403880603"><ele>91.0</ele><time>2026-04-12T08:29:50Z</time></trkpt><trkpt lat="44.01758724696859" lon="8.190164863408443"><ele>91.0</ele><time>2026-04-12T08:29:56Z</time></trkpt><trkpt lat="44.017602475518366" lon="8.190059059235441"><ele>91.0</ele><time>2026-04-12T08:30:01Z</time></trkpt><trkpt lat="44.01761144744623" lon="8.189967424157734"><ele>91.0</ele><time>2026-04-12T08:30:05Z</time></trkpt><trkpt lat="44.0176398240843" lon="8.189876081329116"><ele>91.0</ele><time>2026-04-12T08:30:10Z</time></trkpt><trkpt lat="44.017664845728376" lon="8.189785190884152"><ele>91.0</ele><time>2026-04-12T08:30:15Z</time></trkpt><trkpt lat="44.017670154562445" lon="8.189695675665094"><ele>91.0</ele><time>2026-04-12T08:30:20Z</time></trkpt><trkpt lat="44.01768422289165" lon="8.189594729767528"><ele>91.0</ele><time>2026-04-12T08:30:25Z</time></trkpt><trkpt lat="44.01771016630137" lon="8.18949410208488"><ele>91.0</ele><time>2026-04-12T08:30:31Z</time></trkpt><trkpt lat="44.01772723374881" lon="8.189401343163764"><ele>91.0</ele><time>2026-04-12T08:30:36Z</time></trkpt><trkpt lat="44.01773577062563" lon="8.189298053415929"><ele>91.0</ele><time>2026-04-12T08:30:41Z</time></trkpt><trkpt lat="44.01773790674835" lon="8.189203622601644"><ele>91.0</ele><time>2026-04-12T08:30:46Z</time></trkpt><trkpt lat="44.0177676823226" lon="8.189105031452153"><ele>92.0</ele><time>2026-04-12T08:30:52Z</time></trkpt><trkpt lat="44.017780405156294" lon="8.18900806231962"><ele>93.0</ele><time>2026-04-12T08:30:57Z</time></trkpt><trkpt lat="44.0177957442225" lon="8.188916846905412"><ele>94.0</ele><time>2026-04-12T08:31:02Z</time></trkpt><trkpt lat="44.01780482911695" lon="8.188819465630226"><ele>95.0</ele><time>2026-04-12T08:31:06Z</time></trkpt><trkpt lat="44.0177857448925" lon="8.188716337990188"><ele>96.0</ele><time>2026-04-12T08:31:11Z</time></trkpt><trkpt lat="44.017759914097994" lon="8.188605140818384"><ele>97.0</ele><time>2026-04-12T08:31:16Z</time></trkpt><trkpt lat="44.01773935657643" lon="8.188517265384302"><ele>98.0</ele><time>2026-04-12T08:31:21Z</time></trkpt><trkpt lat="44.01771523074869" lon="8.188411207242991"><ele>98.0</ele><time>2026-04-12T08:31:26Z</time></trkpt><trkpt lat="44.01768679567234" lon="8.18830113772168"><ele>98.0</ele><time>2026-04-12T08:31:31Z</time></trkpt><trkpt lat="44.01767868212267" lon="8.188201463516116"><ele>98.0</ele><time>2026-04-12T08:31:36Z</time></trkpt><trkpt lat="44.017668404862455" lon="8.188114996065236"><ele>98.0</ele><time>2026-04-12T08:31:40Z</time></trkpt><trkpt lat="44.017668511154106" lon="8.188009790717214"><ele>98.0</ele><time>2026-04-12T08:31:45Z</time></trkpt><trkpt lat="44.01767805508635" lon="8.187914331234033"><ele>98.0</ele><time>2026-04-12T08:31:50Z</time></trkpt><trkpt lat="44.01768844898829" lon="8.187813980074388"><ele>98.0</ele><time>2026-04-12T08:31:55Z</time></trkpt><trkpt lat="44.017681060376184" lon="8.187711241493313"><ele>97.85714285714286</ele><time>2026-04-12T08:32:00Z</time></trkpt><trkpt lat="44.01770133546289" lon="8.187620461449887"><ele>97.71428571428572</ele><time>2026-04-12T08:32:05Z</time></trkpt><trkpt lat="44.01773591943373" lon="8.187529990423037"><ele>97.57142857142857</ele><time>2026-04-12T08:32:11Z</time></trkpt><trkpt lat="44.01777082454597" lon="8.187451785374693"><ele>97.42857142857143</ele><time>2026-04-12T08:32:16Z</time></trkpt><trkpt lat="44.01781259545815" lon="8.18736967079879"><ele>97.28571428571429</ele><time>2026-04-12T08:32:20Z</time></trkpt><trkpt lat="44.017850677778064" lon="8.187275150695617"><ele>97.14285714285714</ele><time>2026-04-12T08:32:26Z</time></trkpt><trkpt lat="44.017829191527646" lon="8.187178406068117"><ele>97.0</ele><time>2026-04-12T08:32:31Z</time></trkpt><trkpt lat="44.01777755442787" lon="8.187099235871264"><ele>98.42857142857143</ele><time>2026-04-12T08:32:36Z</time></trkpt><trkpt lat="44.01771457529526" lon="8.18705640041809"><ele>99.85714285714286</ele><time>2026-04-12T08:32:41Z</time></trkpt><trkpt lat="44.01765624157726" lon="8.187018947950884"><ele>101.28571428571429</ele><time>2026-04-12T08:32:46Z</time></trkpt><trkpt lat="44.01759909554088" lon="8.186969193738273"><ele>102.71428571428572</ele><time>2026-04-12T08:32:50Z</time></trkpt><trkpt lat="44.01753384348556" lon="8.186918323142208"><ele>104.14285714285714</ele><time>2026-04-12T08:32:55Z</time></trkpt><trkpt lat="44.0174757270868" lon="8.186880129004614"><ele>105.57142857142858</ele><time>2026-04-12T08:33:00Z</time></trkpt><trkpt lat="44.01741591092548" lon="8.186839393841911"><ele>107.0</ele><time>2026-04-12T08:33:05Z</time></trkpt><trkpt lat="44.017355985040524" lon="8.18680199351208"><ele>102.85714285714286</ele><time>2026-04-12T08:33:10Z</time></trkpt><trkpt lat="44.017298252612726" lon="8.186737666591098"><ele>98.71428571428572</ele><time>2026-04-12T08:33:15Z</time></trkpt><trkpt lat="44.017250892276635" lon="8.186661679060649"><ele>94.57142857142858</ele><time>2026-04-12T08:33:21Z</time></trkpt><trkpt lat="44.01720966703786" lon="8.186581228354525"><ele>90.42857142857143</ele><time>2026-04-12T08:33:27Z</time></trkpt><trkpt lat="44.01716381727834" lon="8.186498229204524"><ele>86.28571428571428</ele><time>2026-04-12T08:33:33Z</time></trkpt><trkpt lat="44.017109043994964" lon="8.186426320984726"><ele>82.14285714285715</ele><time>2026-04-12T08:33:39Z</time></trkpt><trkpt lat="44.01706946219917" lon="8.18633621379937"><ele>78.0</ele><time>2026-04-12T08:33:45Z</time></trkpt><trkpt lat="44.01701716223666" lon="8.18627150486676"><ele>78.0</ele><time>2026-04-12T08:33:50Z</time></trkpt><trkpt lat="44.01695707457351" lon="8.186169977833327"><ele>78.0</ele><time>2026-04-12T08:33:56Z</time></trkpt><trkpt lat="44.016941353536474" lon="8.1860779178288"><ele>78.0</ele><time>2026-04-12T08:34:02Z</time></trkpt><trkpt lat="44.01690426046144" lon="8.185991609099009"><ele>78.0</ele><time>2026-04-12T08:34:07Z</time></trkpt><trkpt lat="44.01688596198233" lon="8.185886593824602"><ele>78.0</ele><time>2026-04-12T08:34:12Z</time></trkpt><trkpt lat="44.016885919579515" lon="8.185794282955019"><ele>78.0</ele><time>2026-04-12T08:34:17Z</time></trkpt><trkpt lat="44.016884192659404" lon="8.185695883794402"><ele>78.28571428571429</ele><time>2026-04-12T08:34:22Z</time></trkpt><trkpt lat="44.01687044671583" lon="8.185592595146547"><ele>78.57142857142857</ele><time>2026-04-12T08:34:27Z</time></trkpt><trkpt lat="44.01688250939557" lon="8.185504583931209"><ele>78.85714285714286</ele><time>2026-04-12T08:34:31Z</time></trkpt><trkpt lat="44.016888096237565" lon="8.185412668280183"><ele>79.14285714285714</ele><time>2026-04-12T08:34:36Z</time></trkpt><trkpt lat="44.01689911338472" lon="8.185309279385033"><ele>79.42857142857143</ele><time>2026-04-12T08:34:41Z</time></trkpt><trkpt lat="44.01691504729776" lon="8.185198786444897"><ele>79.71428571428571</ele><time>2026-04-12T08:34:46Z</time></trkpt><trkpt lat="44.01694592397118" lon="8.185105159530009"><ele>80.0</ele><time>2026-04-12T08:34:51Z</time></trkpt><trkpt lat="44.01695412751543" lon="8.185013446961932"><ele>80.0</ele><time>2026-04-12T08:34:55Z</time></trkpt><trkpt lat="44.016950902233546" lon="8.184909288619181"><ele>80.0</ele><time>2026-04-12T08:35:00Z</time></trkpt><trkpt lat="44.01695033949051" lon="8.18481687320191"><ele>80.0</ele><time>2026-04-12T08:35:05Z</time></trkpt><trkpt lat="44.016949807260325" lon="8.184726371072193"><ele>80.0</ele><time>2026-04-12T08:35:09Z</time></trkpt><trkpt lat="44.016944620440064" lon="8.184625517682502"><ele>80.0</ele><time>2026-04-12T08:35:14Z</time></trkpt><trkpt lat="44.01693751612206" lon="8.184532756751427"><ele>80.0</ele><time>2026-04-12T08:35:19Z</time></trkpt><trkpt lat="44.01691436907618" lon="8.184441364648855"><ele>80.0</ele><time>2026-04-12T08:35:24Z</time></trkpt><trkpt lat="44.016912540076675" lon="8.184353389395591"><ele>80.42857142857143</ele><time>2026-04-12T08:35:27Z</time></trkpt><trkpt lat="44.01689416710855" lon="8.18426940313927"><ele>80.85714285714286</ele><time>2026-04-12T08:35:32Z</time></trkpt><trkpt lat="44.01687326669225" lon="8.18415931339511"><ele>81.28571428571428</ele><time>2026-04-12T08:35:37Z</time></trkpt><trkpt lat="44.01685830394807" lon="8.184069480632255"><ele>81.71428571428572</ele><time>2026-04-12T08:35:42Z</time></trkpt><trkpt lat="44.016842109960024" lon="8.183964850981683"><ele>82.14285714285715</ele><time>2026-04-12T08:35:47Z</time></trkpt><trkpt lat="44.01682405487779" lon="8.183869633670703"><ele>82.57142857142857</ele><time>2026-04-12T08:35:52Z</time></trkpt><trkpt lat="44.016802782788254" lon="8.183785446849217"><ele>83.0</ele><time>2026-04-12T08:35:56Z</time></trkpt><trkpt lat="44.01677976362416" lon="8.183698643382899"><ele>83.57142857142857</ele><time>2026-04-12T08:36:01Z</time></trkpt><trkpt lat="44.0167681034741" lon="8.183605006988259"><ele>84.14285714285715</ele><time>2026-04-12T08:36:06Z</time></trkpt><trkpt lat="44.01675533723616" lon="8.183518916702056"><ele>84.71428571428572</ele><time>2026-04-12T08:36:10Z</time></trkpt><trkpt lat="44.016770754794784" lon="8.18343257665856"><ele>85.28571428571428</ele><time>2026-04-12T08:36:15Z</time></trkpt><trkpt lat="44.016794198643595" lon="8.183329640901608"><ele>85.85714285714286</ele><time>2026-04-12T08:36:20Z</time></trkpt><trkpt lat="44.016822463155165" lon="8.18324616053529"><ele>86.42857142857143</ele><time>2026-04-12T08:36:25Z</time></trkpt><trkpt lat="44.01686720109753" lon="8.183165938521446"><ele>87.0</ele><time>2026-04-12T08:36:30Z</time></trkpt><trkpt lat="44.01691343046525" lon="8.183089000743955"><ele>84.71428571428571</ele><time>2026-04-12T08:36:35Z</time></trkpt><trkpt lat="44.0169778774232" lon="8.183067423808891"><ele>82.42857142857143</ele><time>2026-04-12T08:36:39Z</time></trkpt><trkpt lat="44.0170467992689" lon="8.183051381204008"><ele>80.14285714285714</ele><time>2026-04-12T08:36:43Z</time></trkpt><trkpt lat="44.017111959758665" lon="8.183045754106772"><ele>77.85714285714286</ele><time>2026-04-12T08:36:47Z</time></trkpt><trkpt lat="44.017178016456036" lon="8.18303464721521"><ele>75.57142857142857</ele><time>2026-04-12T08:36:51Z</time></trkpt><trkpt lat="44.01725272021288" lon="8.18302132923276"><ele>73.28571428571428</ele><time>2026-04-12T08:36:56Z</time></trkpt><trkpt lat="44.01733259796124" lon="8.183035070494364"><ele>71.0</ele><time>2026-04-12T08:37:01Z</time></trkpt><trkpt lat="44.01739867535278" lon="8.183019259391859"><ele>71.0</ele><time>2026-04-12T08:37:05Z</time></trkpt><trkpt lat="44.0174702802167" lon="8.183005234343659"><ele>71.0</ele><time>2026-04-12T08:37:10Z</time></trkpt><trkpt lat="44.01753674540796" lon="8.18302265317266"><ele>71.0</ele><time>2026-04-12T08:37:15Z</time></trkpt><trkpt lat="44.01760721640819" lon="8.183051278185635"><ele>71.0</ele><time>2026-04-12T08:37:20Z</time></trkpt><trkpt lat="44.01767711198238" lon="8.183091999048857"><ele>71.0</ele><time>2026-04-12T08:37:25Z</time></trkpt><trkpt lat="44.017750149828956" lon="8.183099795486983"><ele>71.0</ele><time>2026-04-12T08:37:30Z</time></trkpt><trkpt lat="44.01782431050909" lon="8.183079254462653"><ele>71.0</ele><time>2026-04-12T08:37:35Z</time></trkpt><trkpt lat="44.01786369161842" lon="8.183008540238246"><ele>73.28571428571428</ele><time>2026-04-12T08:37:39Z</time></trkpt><trkpt lat="44.01790521009108" lon="8.182922067560307"><ele>75.57142857142857</ele><time>2026-04-12T08:37:44Z</time></trkpt><trkpt lat="44.01793151025593" lon="8.182838625652867"><ele>77.85714285714286</ele><time>2026-04-12T08:37:48Z</time></trkpt><trkpt lat="44.017928785453314" lon="8.182734238862432"><ele>80.14285714285714</ele><time>2026-04-12T08:37:53Z</time></trkpt><trkpt lat="44.017901893463275" lon="8.182654913565775"><ele>82.42857142857143</ele><time>2026-04-12T08:37:57Z</time></trkpt><trkpt lat="44.01786185568939" lon="8.182580491404211"><ele>84.71428571428571</ele><time>2026-04-12T08:38:01Z</time></trkpt><trkpt lat="44.017827910686655" lon="8.182504961381717"><ele>87.0</ele><time>2026-04-12T08:38:05Z</time></trkpt><trkpt lat="44.01778448927276" lon="8.182423174019469"><ele>88.57142857142857</ele><time>2026-04-12T08:38:11Z</time></trkpt><trkpt lat="44.01775942511329" lon="8.182337104086546"><ele>90.14285714285714</ele><time>2026-04-12T08:38:16Z</time></trkpt><trkpt lat="44.017745909784516" lon="8.182234633976412"><ele>91.71428571428572</ele><time>2026-04-12T08:38:20Z</time></trkpt><trkpt lat="44.01769993569022" lon="8.182173855952886"><ele>93.28571428571428</ele><time>2026-04-12T08:38:23Z</time></trkpt><trkpt lat="44.01767089058685" lon="8.18207987921462"><ele>94.85714285714286</ele><time>2026-04-12T08:38:27Z</time></trkpt><trkpt lat="44.01763386820405" lon="8.182004967599669"><ele>96.42857142857143</ele><time>2026-04-12T08:38:31Z</time></trkpt><trkpt lat="44.017599281977866" lon="8.181924391236498"><ele>98.0</ele><time>2026-04-12T08:38:37Z</time></trkpt><trkpt lat="44.017560803100906" lon="8.181839633354977"><ele>98.0</ele><time>2026-04-12T08:38:42Z</time></trkpt><trkpt lat="44.01752037853894" lon="8.181767250759815"><ele>98.0</ele><time>2026-04-12T08:38:46Z</time></trkpt><trkpt lat="44.017485102673135" lon="8.181688512826119"><ele>98.0</ele><time>2026-04-12T08:38:51Z</time></trkpt><trkpt lat="44.01743166820074" lon="8.181604743461683"><ele>98.0</ele><time>2026-04-12T08:38:56Z</time></trkpt><trkpt lat="44.017382312375936" lon="8.181541542664863"><ele>98.0</ele><time>2026-04-12T08:39:01Z</time></trkpt><trkpt lat="44.017334871207204" lon="8.181469275276012"><ele>98.0</ele><time>2026-04-12T08:39:06Z</time></trkpt><trkpt lat="44.017293069729845" lon="8.181396792197413"><ele>98.0</ele><time>2026-04-12T08:39:11Z</time></trkpt><trkpt lat="44.01724445296995" lon="8.181315776889615"><ele>96.28571428571429</ele><time>2026-04-12T08:39:16Z</time></trkpt><trkpt lat="44.01720961913395" lon="8.181235244039636"><ele>94.57142857142857</ele><time>2026-04-12T08:39:20Z</time></trkpt><trkpt lat="44.01716170564391" lon="8.181163701678994"><ele>92.85714285714286</ele><time>2026-04-12T08:39:25Z</time></trkpt><trkpt lat="44.01714176442984" lon="8.18106047202239"><ele>91.14285714285714</ele><time>2026-04-12T08:39:29Z</time></trkpt><trkpt lat="44.0171400631716" lon="8.180970949361782"><ele>89.42857142857143</ele><time>2026-04-12T08:39:33Z</time></trkpt><trkpt lat="44.01713196996476" lon="8.180882428300347"><ele>87.71428571428572</ele><time>2026-04-12T08:39:37Z</time></trkpt><trkpt lat="44.017117216636926" lon="8.180781102520104"><ele>86.0</ele><time>2026-04-12T08:39:42Z</time></trkpt><trkpt lat="44.017089005311774" lon="8.18068428809961"><ele>89.66666666666667</ele><time>2026-04-12T08:39:47Z</time></trkpt><trkpt lat="44.01704940527003" lon="8.180599960371142"><ele>93.33333333333334</ele><time>2026-04-12T08:39:52Z</time></trkpt><trkpt lat="44.01698616189578" lon="8.18056351353797"><ele>97.0</ele><time>2026-04-12T08:39:57Z</time></trkpt><trkpt lat="44.01693047878811" lon="8.180474556404407"><ele>100.66666666666667</ele><time>2026-04-12T08:40:02Z</time></trkpt><trkpt lat="44.01687575964765" lon="8.180394269113672"><ele>104.33333333333333</ele><time>2026-04-12T08:40:08Z</time></trkpt><trkpt lat="44.01682915670019" lon="8.180300469508927"><ele>108.0</ele><time>2026-04-12T08:40:13Z</time></trkpt><trkpt lat="44.01678539540227" lon="8.180208017876538"><ele>108.0</ele><time>2026-04-12T08:40:19Z</time></trkpt><trkpt lat="44.01675436424415" lon="8.180128684971107"><ele>108.0</ele><time>2026-04-12T08:40:24Z</time></trkpt><trkpt lat="44.016740427736785" lon="8.180040649890186"><ele>108.0</ele><time>2026-04-12T08:40:28Z</time></trkpt><trkpt lat="44.016723725003374" lon="8.179946839254285"><ele>108.0</ele><time>2026-04-12T08:40:32Z</time></trkpt><trkpt lat="44.01671651496153" lon="8.179847162759167"><ele>108.0</ele><time>2026-04-12T08:40:37Z</time></trkpt><trkpt lat="44.0167042800664" lon="8.17973899760246"><ele>108.0</ele><time>2026-04-12T08:40:42Z</time></trkpt><trkpt lat="44.01669878029771" lon="8.179630765803427"><ele>108.0</ele><time>2026-04-12T08:40:48Z</time></trkpt><trkpt lat="44.01670142858146" lon="8.179523786739583"><ele>106.85714285714286</ele><time>2026-04-12T08:40:53Z</time></trkpt><trkpt lat="44.01669340016988" lon="8.17941953293791"><ele>105.71428571428571</ele><time>2026-04-12T08:40:58Z</time></trkpt><trkpt lat="44.01669063984283" lon="8.17930841287879"><ele>104.57142857142858</ele><time>2026-04-12T08:41:03Z</time></trkpt><trkpt lat="44.0166953963299" lon="8.179202865151414"><ele>103.42857142857143</ele><time>2026-04-12T08:41:09Z</time></trkpt><trkpt lat="44.01666955286834" lon="8.179116181475157"><ele>102.28571428571429</ele><time>2026-04-12T08:41:13Z</time></trkpt><trkpt lat="44.016611111758905" lon="8.179073928398218"><ele>101.14285714285715</ele><time>2026-04-12T08:41:18Z</time></trkpt><trkpt lat="44.01659085338641" lon="8.178990531589195"><ele>100.0</ele><time>2026-04-12T08:41:22Z</time></trkpt><trkpt lat="44.01652575621001" lon="8.178947253341565"><ele>100.00000000000001</ele><time>2026-04-12T08:41:27Z</time></trkpt><trkpt lat="44.0164628918403" lon="8.178912471969506"><ele>100.0</ele><time>2026-04-12T08:41:32Z</time></trkpt><trkpt lat="44.01641504568385" lon="8.178849543277234"><ele>100.0</ele><time>2026-04-12T08:41:36Z</time></trkpt><trkpt lat="44.01638285960884" lon="8.178770176956712"><ele>100.0</ele><time>2026-04-12T08:41:43Z</time></trkpt><trkpt lat="44.01644814450027" lon="8.178769335390756"><ele>100.0</ele><time>2026-04-12T08:41:49Z</time></trkpt><trkpt lat="44.01646674750254" lon="8.178672605652128"><ele>100.00000000000001</ele><time>2026-04-12T08:41:54Z</time></trkpt><trkpt lat="44.01652996818101" lon="8.178675322748227"><ele>100.0</ele><time>2026-04-12T08:42:06Z</time></trkpt><trkpt lat="44.01659923204969" lon="8.178718299391287"><ele>102.28571428571429</ele><time>2026-04-12T08:42:14Z</time></trkpt><trkpt lat="44.01665504624014" lon="8.178765072209996"><ele>104.57142857142858</ele><time>2026-04-12T08:42:19Z</time></trkpt><trkpt lat="44.01671324419794" lon="8.17882004510827"><ele>106.85714285714286</ele><time>2026-04-12T08:42:25Z</time></trkpt><trkpt lat="44.01677360163598" lon="8.178872055153693"><ele>109.14285714285715</ele><time>2026-04-12T08:42:32Z</time></trkpt><trkpt lat="44.01685982871122" lon="8.178866396117932"><ele>111.42857142857143</ele><time>2026-04-12T08:42:36Z</time></trkpt><trkpt lat="44.01693119876274" lon="8.178848903401656"><ele>113.71428571428574</ele><time>2026-04-12T08:42:39Z</time></trkpt><trkpt lat="44.01700022690281" lon="8.17883527165138"><ele>116.00000000000001</ele><time>2026-04-12T08:42:42Z</time></trkpt><trkpt lat="44.017049882134515" lon="8.178910391019066"><ele>115.99999999999999</ele><time>2026-04-12T08:42:48Z</time></trkpt><trkpt lat="44.01712359951872" lon="8.178936962450665"><ele>116.0</ele><time>2026-04-12T08:42:53Z</time></trkpt><trkpt lat="44.01718860155422" lon="8.178946031681834"><ele>116.0</ele><time>2026-04-12T08:43:04Z</time></trkpt><trkpt lat="44.01724115144781" lon="8.179017601527432"><ele>116.0</ele><time>2026-04-12T08:43:07Z</time></trkpt><trkpt lat="44.01729183883244" lon="8.179089417095785"><ele>115.99999999999999</ele><time>2026-04-12T08:43:08Z</time></trkpt><trkpt lat="44.01736030755224" lon="8.179118288271185"><ele>116.0</ele><time>2026-04-12T08:43:13Z</time></trkpt><trkpt lat="44.01713545865428" lon="8.178962202876836"><ele>116.33333333333333</ele><time>2026-04-12T08:43:15Z</time></trkpt><trkpt lat="44.01720150600647" lon="8.179048600606864"><ele>116.66666666666666</ele><time>2026-04-12T08:43:18Z</time></trkpt><trkpt lat="44.01723601193023" lon="8.179126276395406"><ele>117.0</ele><time>2026-04-12T08:43:20Z</time></trkpt><trkpt lat="44.017276756791425" lon="8.179233690184075"><ele>117.33333333333334</ele><time>2026-04-12T08:43:22Z</time></trkpt><trkpt lat="44.01737413879621" lon="8.179263077700817"><ele>117.66666666666667</ele><time>2026-04-12T08:43:24Z</time></trkpt><trkpt lat="44.01743495391789" lon="8.179212596101507"><ele>118.0</ele><time>2026-04-12T08:43:30Z</time></trkpt><trkpt lat="44.017487989976495" lon="8.179266451167013"><ele>120.57142857142857</ele><time>2026-04-12T08:43:35Z</time></trkpt><trkpt lat="44.017551689448474" lon="8.179337849032468"><ele>123.14285714285714</ele><time>2026-04-12T08:43:42Z</time></trkpt><trkpt lat="44.01758476237819" lon="8.179422881988314"><ele>125.71428571428571</ele><time>2026-04-12T08:43:47Z</time></trkpt><trkpt lat="44.01764596215227" lon="8.179448636534392"><ele>128.28571428571428</ele><time>2026-04-12T08:43:51Z</time></trkpt><trkpt lat="44.017707393484706" lon="8.179517812681224"><ele>130.85714285714286</ele><time>2026-04-12T08:43:57Z</time></trkpt><trkpt lat="44.01775214215303" lon="8.179592916940305"><ele>133.42857142857142</ele><time>2026-04-12T08:44:03Z</time></trkpt><trkpt lat="44.01781422324222" lon="8.179621597598777"><ele>136.0</ele><time>2026-04-12T08:44:10Z</time></trkpt><trkpt lat="44.0178774807699" lon="8.179667140528792"><ele>135.99999999999997</ele><time>2026-04-12T08:44:17Z</time></trkpt><trkpt lat="44.01794458589156" lon="8.179666916897327"><ele>136.0</ele><time>2026-04-12T08:44:25Z</time></trkpt><trkpt lat="44.01800941273438" lon="8.179703341601748"><ele>136.0</ele><time>2026-04-12T08:44:31Z</time></trkpt><trkpt lat="44.018068467683264" lon="8.179666321349345"><ele>136.0</ele><time>2026-04-12T08:44:35Z</time></trkpt><trkpt lat="44.018126984687505" lon="8.179701200809511"><ele>136.0</ele><time>2026-04-12T08:44:41Z</time></trkpt><trkpt lat="44.018192086422125" lon="8.179727435637716"><ele>135.99999999999997</ele><time>2026-04-12T08:44:51Z</time></trkpt><trkpt lat="44.01826213835982" lon="8.179758350391118"><ele>136.0</ele><time>2026-04-12T08:44:57Z</time></trkpt><trkpt lat="44.01833232641283" lon="8.179783201644026"><ele>137.57142857142856</ele><time>2026-04-12T08:45:04Z</time></trkpt><trkpt lat="44.01838731208944" lon="8.179829917662158"><ele>139.14285714285714</ele><time>2026-04-12T08:45:13Z</time></trkpt><trkpt lat="44.01846450519122" lon="8.179881253480042"><ele>140.71428571428572</ele><time>2026-04-12T08:45:20Z</time></trkpt><trkpt lat="44.018524053092804" lon="8.179945963335589"><ele>142.28571428571428</ele><time>2026-04-12T08:45:28Z</time></trkpt><trkpt lat="44.01858440186862" lon="8.180002627434702"><ele>143.85714285714286</ele><time>2026-04-12T08:45:38Z</time></trkpt><trkpt lat="44.01863935286153" lon="8.180052903521405"><ele>145.42857142857142</ele><time>2026-04-12T08:45:51Z</time></trkpt><trkpt lat="44.01870266104175" lon="8.180083111173321"><ele>147.0</ele><time>2026-04-12T08:45:56Z</time></trkpt><trkpt lat="44.01876460602317" lon="8.180139041495003"><ele>149.42857142857142</ele><time>2026-04-12T08:46:03Z</time></trkpt><trkpt lat="44.01882479457961" lon="8.180169826798819"><ele>151.85714285714286</ele><time>2026-04-12T08:46:10Z</time></trkpt><trkpt lat="44.018896233180364" lon="8.180201841662683"><ele>154.28571428571428</ele><time>2026-04-12T08:46:17Z</time></trkpt><trkpt lat="44.01895616405998" lon="8.180241272604572"><ele>156.71428571428572</ele><time>2026-04-12T08:46:23Z</time></trkpt><trkpt lat="44.01902657486854" lon="8.180256398180298"><ele>159.14285714285714</ele><time>2026-04-12T08:46:30Z</time></trkpt><trkpt lat="44.019092287815155" lon="8.180279373904046"><ele>161.57142857142856</ele><time>2026-04-12T08:46:35Z</time></trkpt><trkpt lat="44.01915743073086" lon="8.180293655872424"><ele>164.0</ele><time>2026-04-12T08:46:48Z</time></trkpt><trkpt lat="44.0192258241781" lon="8.180256140103362"><ele>165.85714285714283</ele><time>2026-04-12T08:46:57Z</time></trkpt><trkpt lat="44.019288360481845" lon="8.18028089078484"><ele>167.71428571428572</ele><time>2026-04-12T08:47:02Z</time></trkpt><trkpt lat="44.01934781625955" lon="8.180320752783569"><ele>169.57142857142856</ele><time>2026-04-12T08:47:08Z</time></trkpt><trkpt lat="44.01940356309745" lon="8.18039826830236"><ele>171.42857142857142</ele><time>2026-04-12T08:47:15Z</time></trkpt><trkpt lat="44.019459125915404" lon="8.18044019789567"><ele>173.28571428571428</ele><time>2026-04-12T08:47:21Z</time></trkpt><trkpt lat="44.01951490845373" lon="8.180481156828227"><ele>175.14285714285714</ele><time>2026-04-12T08:47:29Z</time></trkpt><trkpt lat="44.019577918750215" lon="8.180526985731124"><ele>177.0</ele><time>2026-04-12T08:47:40Z</time></trkpt><trkpt lat="44.019649348559135" lon="8.180535019496253"><ele>177.0</ele><time>2026-04-12T08:47:44Z</time></trkpt><trkpt lat="44.019724803800926" lon="8.180552178428128"><ele>177.0</ele><time>2026-04-12T08:47:53Z</time></trkpt><trkpt lat="44.01980029766978" lon="8.18054125508492"><ele>177.0</ele><time>2026-04-12T08:48:02Z</time></trkpt><trkpt lat="44.019833508872004" lon="8.180627189785659"><ele>177.0</ele><time>2026-04-12T08:48:05Z</time></trkpt><trkpt lat="44.01989997041214" lon="8.180634147848062"><ele>177.0</ele><time>2026-04-12T08:48:10Z</time></trkpt><trkpt lat="44.019958680972685" lon="8.180702217936338"><ele>177.0</ele><time>2026-04-12T08:48:18Z</time></trkpt><trkpt lat="44.020032968224754" lon="8.180731758471296"><ele>177.0</ele><time>2026-04-12T08:48:24Z</time></trkpt><trkpt lat="44.02009769118193" lon="8.180762158961427"><ele>181.42857142857144</ele><time>2026-04-12T08:48:31Z</time></trkpt><trkpt lat="44.02016011696776" lon="8.180777726424855"><ele>185.85714285714283</ele><time>2026-04-12T08:48:37Z</time></trkpt><trkpt lat="44.020226855318754" lon="8.180809863756265"><ele>190.28571428571428</ele><time>2026-04-12T08:48:43Z</time></trkpt><trkpt lat="44.020293562800255" lon="8.180839306848396"><ele>194.71428571428572</ele><time>2026-04-12T08:48:52Z</time></trkpt><trkpt lat="44.020356914821654" lon="8.180883037331666"><ele>199.14285714285717</ele><time>2026-04-12T08:48:58Z</time></trkpt><trkpt lat="44.020419858169255" lon="8.180903693317852"><ele>203.57142857142856</ele><time>2026-04-12T08:49:05Z</time></trkpt><trkpt lat="44.02048176051136" lon="8.180941897791122"><ele>208.0</ele><time>2026-04-12T08:49:12Z</time></trkpt><trkpt lat="44.02054411084511" lon="8.180978659501735"><ele>208.0</ele><time>2026-04-12T08:49:19Z</time></trkpt><trkpt lat="44.02060492404163" lon="8.181008633165835"><ele>208.0</ele><time>2026-04-12T08:49:26Z</time></trkpt><trkpt lat="44.020664901973234" lon="8.181048342727383"><ele>208.0</ele><time>2026-04-12T08:49:32Z</time></trkpt><trkpt lat="44.0207253283655" lon="8.181096435412881"><ele>208.0</ele><time>2026-04-12T08:49:37Z</time></trkpt><trkpt lat="44.02078681565613" lon="8.181141022603088"><ele>208.0</ele><time>2026-04-12T08:49:44Z</time></trkpt><trkpt lat="44.020845893433105" lon="8.181185774650963"><ele>208.0</ele><time>2026-04-12T08:49:51Z</time></trkpt><trkpt lat="44.02090202660697" lon="8.181228296133579"><ele>208.0</ele><time>2026-04-12T08:50:00Z</time></trkpt><trkpt lat="44.02095772384313" lon="8.18126959008551"><ele>211.14285714285714</ele><time>2026-04-12T08:50:05Z</time></trkpt><trkpt lat="44.021019593585095" lon="8.181312439353311"><ele>214.28571428571428</ele><time>2026-04-12T08:50:14Z</time></trkpt><trkpt lat="44.02107901151489" lon="8.181343633456425"><ele>217.42857142857142</ele><time>2026-04-12T08:50:22Z</time></trkpt><trkpt lat="44.0211408151579" lon="8.181371243990256"><ele>220.57142857142856</ele><time>2026-04-12T08:50:31Z</time></trkpt><trkpt lat="44.02120324645723" lon="8.181404631041758"><ele>223.71428571428572</ele><time>2026-04-12T08:50:38Z</time></trkpt><trkpt lat="44.02126533163497" lon="8.181451201103059"><ele>226.85714285714283</ele><time>2026-04-12T08:50:46Z</time></trkpt><trkpt lat="44.02132886513958" lon="8.1814843604078"><ele>229.99999999999997</ele><time>2026-04-12T08:50:54Z</time></trkpt><trkpt lat="44.021388758516906" lon="8.181530267053256"><ele>230.4285714285714</ele><time>2026-04-12T08:51:02Z</time></trkpt><trkpt lat="44.02144740319195" lon="8.181576112748091"><ele>230.85714285714283</ele><time>2026-04-12T08:51:09Z</time></trkpt><trkpt lat="44.02150311858792" lon="8.181626499520846"><ele>231.28571428571428</ele><time>2026-04-12T08:51:17Z</time></trkpt><trkpt lat="44.021556744133605" lon="8.181681467933686"><ele>231.7142857142857</ele><time>2026-04-12T08:51:24Z</time></trkpt><trkpt lat="44.021616535346354" lon="8.181731069104805"><ele>232.1428571428571</ele><time>2026-04-12T08:51:31Z</time></trkpt><trkpt lat="44.02168128134617" lon="8.18175724637582"><ele>232.57142857142858</ele><time>2026-04-12T08:51:37Z</time></trkpt><trkpt lat="44.02175819694142" lon="8.181774645543989"><ele>233.0</ele><time>2026-04-12T08:51:44Z</time></trkpt><trkpt lat="44.02183112737547" lon="8.181783159956478"><ele>236.57142857142858</ele><time>2026-04-12T08:51:52Z</time></trkpt><trkpt lat="44.02190025246141" lon="8.181788574378942"><ele>240.1428571428571</ele><time>2026-04-12T08:51:58Z</time></trkpt><trkpt lat="44.021973974441515" lon="8.181792959436953"><ele>243.7142857142857</ele><time>2026-04-12T08:52:06Z</time></trkpt><trkpt lat="44.02203710606757" lon="8.181795178476444"><ele>247.28571428571428</ele><time>2026-04-12T08:52:14Z</time></trkpt><trkpt lat="44.022104344800454" lon="8.181795175138719"><ele>250.85714285714283</ele><time>2026-04-12T08:52:21Z</time></trkpt><trkpt lat="44.02216849683541" lon="8.181790953204894"><ele>254.4285714285714</ele><time>2026-04-12T08:52:28Z</time></trkpt><trkpt lat="44.02222931871336" lon="8.181821412700813"><ele>258.0</ele><time>2026-04-12T08:52:34Z</time></trkpt><trkpt lat="44.02226634658387" lon="8.181912834085127"><ele>257.99999999999994</ele><time>2026-04-12T08:52:38Z</time></trkpt><trkpt lat="44.022337946923074" lon="8.18191386568247"><ele>258.0</ele><time>2026-04-12T08:52:45Z</time></trkpt><trkpt lat="44.02240857665217" lon="8.181917490826846"><ele>258.0</ele><time>2026-04-12T08:52:54Z</time></trkpt><trkpt lat="44.02247245223619" lon="8.181864491716741"><ele>258.0</ele><time>2026-04-12T08:53:06Z</time></trkpt><trkpt lat="44.022534785484694" lon="8.181930590219736"><ele>258.0</ele><time>2026-04-12T08:53:12Z</time></trkpt><trkpt lat="44.02259551515485" lon="8.181957639420059"><ele>257.99999999999994</ele><time>2026-04-12T08:53:16Z</time></trkpt><trkpt lat="44.02266358880493" lon="8.18198071930091"><ele>258.0</ele><time>2026-04-12T08:53:23Z</time></trkpt><trkpt lat="44.02272093970168" lon="8.182019214793803"><ele>260.99999999999994</ele><time>2026-04-12T08:53:30Z</time></trkpt><trkpt lat="44.02278681719798" lon="8.182023300643486"><ele>264.0</ele><time>2026-04-12T08:53:37Z</time></trkpt><trkpt lat="44.022849076427924" lon="8.182058143192458"><ele>267.0</ele><time>2026-04-12T08:53:43Z</time></trkpt><trkpt lat="44.02291283785345" lon="8.182078815190097"><ele>270.0</ele><time>2026-04-12T08:53:50Z</time></trkpt><trkpt lat="44.02297547308873" lon="8.182115417307493"><ele>273.0</ele><time>2026-04-12T08:53:57Z</time></trkpt><trkpt lat="44.0230445802425" lon="8.182115371326123"><ele>275.99999999999994</ele><time>2026-04-12T08:54:04Z</time></trkpt><trkpt lat="44.023114132543775" lon="8.18212572599938"><ele>279.0</ele><time>2026-04-12T08:54:12Z</time></trkpt><trkpt lat="44.02315840696442" lon="8.182190589148721"><ele>278.99999999999994</ele><time>2026-04-12T08:54:19Z</time></trkpt><trkpt lat="44.0231840249918" lon="8.182294961611982"><ele>279.0</ele><time>2026-04-12T08:55:33Z</time></trkpt><trkpt lat="44.023249262998114" lon="8.182388328562139"><ele>279.0</ele><time>2026-04-12T08:55:53Z</time></trkpt><trkpt lat="44.02330716946151" lon="8.182450351151793"><ele>279.0</ele><time>2026-04-12T08:55:59Z</time></trkpt><trkpt lat="44.02336070090544" lon="8.182499172186592"><ele>279.0</ele><time>2026-04-12T08:56:04Z</time></trkpt><trkpt lat="44.023421618218705" lon="8.182546287608671"><ele>278.99999999999994</ele><time>2026-04-12T08:56:11Z</time></trkpt><trkpt lat="44.02348059335721" lon="8.182584105409674"><ele>279.0</ele><time>2026-04-12T08:56:16Z</time></trkpt><trkpt lat="44.023547461114326" lon="8.182622899679222"><ele>282.4285714285714</ele><time>2026-04-12T08:56:22Z</time></trkpt><trkpt lat="44.02360869889034" lon="8.182645294581459"><ele>285.85714285714283</ele><time>2026-04-12T08:56:36Z</time></trkpt><trkpt lat="44.02366836528312" lon="8.182698477408135"><ele>289.2857142857143</ele><time>2026-04-12T08:57:17Z</time></trkpt><trkpt lat="44.02373198969364" lon="8.18274901424865"><ele>292.71428571428567</ele><time>2026-04-12T08:57:23Z</time></trkpt><trkpt lat="44.02376390009969" lon="8.182824952012833"><ele>296.1428571428571</ele><time>2026-04-12T08:57:28Z</time></trkpt><trkpt lat="44.023791290692806" lon="8.182921189738703"><ele>299.57142857142856</ele><time>2026-04-12T08:57:34Z</time></trkpt><trkpt lat="44.023817803526946" lon="8.183013295685104"><ele>303.0</ele><time>2026-04-12T08:57:55Z</time></trkpt><trkpt lat="44.023855179768894" lon="8.183087609792713"><ele>303.0</ele><time>2026-04-12T08:58:01Z</time></trkpt><trkpt lat="44.023906317049686" lon="8.183153779950134"><ele>303.0</ele><time>2026-04-12T08:58:07Z</time></trkpt><trkpt lat="44.02395714077702" lon="8.183208575715097"><ele>303.0</ele><time>2026-04-12T08:58:12.999Z</time></trkpt><trkpt lat="44.024009097589314" lon="8.183265522715033"><ele>303.0</ele><time>2026-04-12T08:58:19.999Z</time></trkpt><trkpt lat="44.02406621906359" lon="8.183318491136676"><ele>303.0</ele><time>2026-04-12T08:58:26.999Z</time></trkpt><trkpt lat="44.02411571974706" lon="8.183395995503266"><ele>303.0</ele><time>2026-04-12T08:58:34Z</time></trkpt><trkpt lat="44.02410151121182" lon="8.183495513464747"><ele>303.0</ele><time>2026-04-12T08:58:42Z</time></trkpt><trkpt lat="44.02408232521662" lon="8.183584045604155"><ele>302.42857142857144</ele><time>2026-04-12T08:58:49Z</time></trkpt><trkpt lat="44.02407584901499" lon="8.183684061452123"><ele>301.85714285714283</ele><time>2026-04-12T08:58:55Z</time></trkpt><trkpt lat="44.024078411320424" lon="8.18378313535276"><ele>301.2857142857143</ele><time>2026-04-12T08:59:04Z</time></trkpt><trkpt lat="44.02406051795616" lon="8.183867236535583"><ele>300.7142857142857</ele><time>2026-04-12T08:59:12Z</time></trkpt><trkpt lat="44.02404411946937" lon="8.183964801305152"><ele>300.14285714285717</ele><time>2026-04-12T08:59:20Z</time></trkpt><trkpt lat="44.02402377472502" lon="8.18406852836681"><ele>299.57142857142856</ele><time>2026-04-12T08:59:28Z</time></trkpt><trkpt lat="44.02399457236751" lon="8.184151481803163"><ele>299.0</ele><time>2026-04-12T08:59:34Z</time></trkpt><trkpt lat="44.02398762173415" lon="8.184240418894982"><ele>299.0</ele><time>2026-04-12T08:59:40Z</time></trkpt><trkpt lat="44.023997925748574" lon="8.184339003222277"><ele>299.0</ele><time>2026-04-12T08:59:46Z</time></trkpt><trkpt lat="44.02401972012528" lon="8.184432202942725"><ele>299.0</ele><time>2026-04-12T08:59:56Z</time></trkpt><trkpt lat="44.02407186372554" lon="8.18449312304284"><ele>299.0</ele><time>2026-04-12T09:00:03Z</time></trkpt><trkpt lat="44.02400490856721" lon="8.184603730381522"><ele>299.0</ele><time>2026-04-12T09:00:17Z</time></trkpt><trkpt lat="44.02394915571028" lon="8.184649130865676"><ele>299.0</ele><time>2026-04-12T09:00:23Z</time></trkpt><trkpt lat="44.0239083139693" lon="8.184723978043106"><ele>299.0</ele><time>2026-04-12T09:00:29Z</time></trkpt><trkpt lat="44.023851177015004" lon="8.18479092110333"><ele>299.0</ele><time>2026-04-12T09:00:36Z</time></trkpt><trkpt lat="44.02379294700441" lon="8.184837970519649"><ele>299.0</ele><time>2026-04-12T09:00:43Z</time></trkpt><trkpt lat="44.023739730925655" lon="8.184898688791915"><ele>299.0</ele><time>2026-04-12T09:00:50Z</time></trkpt><trkpt lat="44.02368567126132" lon="8.184953981996586"><ele>299.0</ele><time>2026-04-12T09:00:57Z</time></trkpt><trkpt lat="44.02362024004465" lon="8.184986274068494"><ele>299.0</ele><time>2026-04-12T09:01:04Z</time></trkpt><trkpt lat="44.023555686853506" lon="8.185030313529404"><ele>299.0</ele><time>2026-04-12T09:01:10Z</time></trkpt><trkpt lat="44.023508032955036" lon="8.185096622514562"><ele>299.0</ele><time>2026-04-12T09:01:17Z</time></trkpt><trkpt lat="44.02345879725238" lon="8.185155636636837"><ele>297.0</ele><time>2026-04-12T09:01:24Z</time></trkpt><trkpt lat="44.02341849598326" lon="8.185226522416825"><ele>295.0</ele><time>2026-04-12T09:01:29Z</time></trkpt><trkpt lat="44.02335479318671" lon="8.185270468456995"><ele>293.0</ele><time>2026-04-12T09:01:36Z</time></trkpt><trkpt lat="44.0232879018456" lon="8.18529800241452"><ele>291.0</ele><time>2026-04-12T09:01:46Z</time></trkpt><trkpt lat="44.02322807968158" lon="8.185335535622277"><ele>289.0</ele><time>2026-04-12T09:01:55Z</time></trkpt><trkpt lat="44.02317051155347" lon="8.185374733435498"><ele>287.0</ele><time>2026-04-12T09:02:05Z</time></trkpt><trkpt lat="44.02310851515778" lon="8.185429387474606"><ele>285.0</ele><time>2026-04-12T09:02:14Z</time></trkpt><trkpt lat="44.023064574107856" lon="8.185494105834366"><ele>285.0</ele><time>2026-04-12T09:02:28Z</time></trkpt><trkpt lat="44.02304426273787" lon="8.18557972560919"><ele>285.0</ele><time>2026-04-12T09:02:35Z</time></trkpt><trkpt lat="44.02299974884172" lon="8.185646215310042"><ele>285.0</ele><time>2026-04-12T09:02:41Z</time></trkpt><trkpt lat="44.02293547556996" lon="8.185634590740177"><ele>285.0</ele><time>2026-04-12T09:02:50Z</time></trkpt><trkpt lat="44.02286428265959" lon="8.185654764607762"><ele>285.0</ele><time>2026-04-12T09:02:58Z</time></trkpt><trkpt lat="44.02280781910791" lon="8.185714201469272"><ele>285.0</ele><time>2026-04-12T09:03:09Z</time></trkpt><trkpt lat="44.02276072970914" lon="8.185787107594"><ele>285.0</ele><time>2026-04-12T09:03:17Z</time></trkpt><trkpt lat="44.02273950768109" lon="8.185878740508914"><ele>283.57142857142856</ele><time>2026-04-12T09:03:26Z</time></trkpt><trkpt lat="44.02271552140108" lon="8.185962350407015"><ele>282.14285714285717</ele><time>2026-04-12T09:03:35Z</time></trkpt><trkpt lat="44.02267484315477" lon="8.186031622487478"><ele>280.7142857142857</ele><time>2026-04-12T09:03:44Z</time></trkpt><trkpt lat="44.02261930398187" lon="8.186088693736675"><ele>279.2857142857143</ele><time>2026-04-12T09:03:55Z</time></trkpt><trkpt lat="44.02255529477729" lon="8.186141661498862"><ele>277.85714285714283</ele><time>2026-04-12T09:04:05Z</time></trkpt><trkpt lat="44.02249434354178" lon="8.186202229530247"><ele>276.42857142857144</ele><time>2026-04-12T09:04:15Z</time></trkpt><trkpt lat="44.022432460623705" lon="8.186234862290673"><ele>275.0</ele><time>2026-04-12T09:04:23Z</time></trkpt><trkpt lat="44.022377218393665" lon="8.186288239223918"><ele>275.0</ele><time>2026-04-12T09:04:29Z</time></trkpt><trkpt lat="44.02231333818001" lon="8.186325787309706"><ele>275.0</ele><time>2026-04-12T09:04:36Z</time></trkpt><trkpt lat="44.02225615662598" lon="8.186365893363911"><ele>275.0</ele><time>2026-04-12T09:04:44Z</time></trkpt><trkpt lat="44.0221945231477" lon="8.18640619937933"><ele>275.0</ele><time>2026-04-12T09:04:53Z</time></trkpt><trkpt lat="44.02213953085425" lon="8.186448947635702"><ele>275.0</ele><time>2026-04-12T09:05:03Z</time></trkpt><trkpt lat="44.02207889602421" lon="8.186498522414833"><ele>275.0</ele><time>2026-04-12T09:05:14Z</time></trkpt><trkpt lat="44.022029922452205" lon="8.18655845141564"><ele>275.0</ele><time>2026-04-12T09:05:22Z</time></trkpt><trkpt lat="44.02196809736659" lon="8.186608656199535"><ele>275.14285714285717</ele><time>2026-04-12T09:05:31Z</time></trkpt><trkpt lat="44.02191555320383" lon="8.186669515113282"><ele>275.2857142857143</ele><time>2026-04-12T09:05:41Z</time></trkpt><trkpt lat="44.0218656984048" lon="8.18673192480902"><ele>275.42857142857144</ele><time>2026-04-12T09:05:52Z</time></trkpt><trkpt lat="44.021815539733346" lon="8.186795535091859"><ele>275.57142857142856</ele><time>2026-04-12T09:06:02Z</time></trkpt><trkpt lat="44.021751294650585" lon="8.186869538876874"><ele>275.7142857142857</ele><time>2026-04-12T09:06:21Z</time></trkpt><trkpt lat="44.02169292329322" lon="8.186905031654797"><ele>275.8571428571429</ele><time>2026-04-12T09:06:28Z</time></trkpt><trkpt lat="44.02162590343628" lon="8.186918229051459"><ele>276.0</ele><time>2026-04-12T09:06:37Z</time></trkpt><trkpt lat="44.021563316983055" lon="8.186946367635546"><ele>272.0</ele><time>2026-04-12T09:06:44Z</time></trkpt><trkpt lat="44.02151406443806" lon="8.187007806885612"><ele>268.0</ele><time>2026-04-12T09:06:52Z</time></trkpt><trkpt lat="44.021450812857836" lon="8.187051705800199"><ele>264.0</ele><time>2026-04-12T09:07:02Z</time></trkpt><trkpt lat="44.021390960191795" lon="8.187080521812996"><ele>260.0</ele><time>2026-04-12T09:07:14Z</time></trkpt><trkpt lat="44.02132576128602" lon="8.187099866127507"><ele>256.0</ele><time>2026-04-12T09:07:25Z</time></trkpt><trkpt lat="44.02126309810647" lon="8.187111730271603"><ele>252.0</ele><time>2026-04-12T09:07:38Z</time></trkpt><trkpt lat="44.02120159830054" lon="8.18713367023431"><ele>248.0</ele><time>2026-04-12T09:07:48Z</time></trkpt><trkpt lat="44.02113199126051" lon="8.187156364946746"><ele>248.0</ele><time>2026-04-12T09:08:05Z</time></trkpt><trkpt lat="44.02107634660731" lon="8.187209890512353"><ele>248.00000000000003</ele><time>2026-04-12T09:08:15Z</time></trkpt><trkpt lat="44.02102269326629" lon="8.187266252295155"><ele>248.0</ele><time>2026-04-12T09:08:26Z</time></trkpt><trkpt lat="44.02096505867036" lon="8.187318047482979"><ele>248.0</ele><time>2026-04-12T09:08:33Z</time></trkpt><trkpt lat="44.020899361550555" lon="8.187340484202796"><ele>248.00000000000003</ele><time>2026-04-12T09:08:42Z</time></trkpt><trkpt lat="44.020833760248514" lon="8.187358817976632"><ele>248.0</ele><time>2026-04-12T09:08:51Z</time></trkpt><trkpt lat="44.020774601451286" lon="8.187404393633654"><ele>248.0</ele><time>2026-04-12T09:09:02Z</time></trkpt><trkpt lat="44.02073024665207" lon="8.18746888120339"><ele>243.2857142857143</ele><time>2026-04-12T09:09:24Z</time></trkpt><trkpt lat="44.02065365318738" lon="8.187539932452822"><ele>238.5714285714286</ele><time>2026-04-12T09:10:31Z</time></trkpt><trkpt lat="44.02058948259062" lon="8.187559473678968"><ele>233.85714285714286</ele><time>2026-04-12T09:11:19Z</time></trkpt><trkpt lat="44.02053116851153" lon="8.187593558934143"><ele>229.14285714285717</ele><time>2026-04-12T09:11:31Z</time></trkpt><trkpt lat="44.02046167503383" lon="8.1875858050526"><ele>224.42857142857144</ele><time>2026-04-12T09:11:42Z</time></trkpt><trkpt lat="44.020455123097655" lon="8.187683879833463"><ele>219.71428571428572</ele><time>2026-04-12T09:11:50Z</time></trkpt><trkpt lat="44.02041134412736" lon="8.187762764454819"><ele>215.0</ele><time>2026-04-12T09:11:57Z</time></trkpt><trkpt lat="44.020351465747446" lon="8.187816394738064"><ele>215.0</ele><time>2026-04-12T09:12:08Z</time></trkpt><trkpt lat="44.02028436323569" lon="8.187852990799438"><ele>215.0</ele><time>2026-04-12T09:12:27Z</time></trkpt><trkpt lat="44.02024385443518" lon="8.187927072847959"><ele>215.0</ele><time>2026-04-12T09:12:42Z</time></trkpt><trkpt lat="44.02020799805997" lon="8.187999273875436"><ele>215.0</ele><time>2026-04-12T09:12:52Z</time></trkpt><trkpt lat="44.02014963781779" lon="8.188038759659332"><ele>215.0</ele><time>2026-04-12T09:13:02.001Z</time></trkpt><trkpt lat="44.02009616389425" lon="8.188089141699535"><ele>215.0</ele><time>2026-04-12T09:13:12Z</time></trkpt><trkpt lat="44.020079575930055" lon="8.188185058848935"><ele>215.0</ele><time>2026-04-12T09:13:26Z</time></trkpt><trkpt lat="44.020039145043654" lon="8.188252592757179"><ele>212.28571428571428</ele><time>2026-04-12T09:13:35Z</time></trkpt><trkpt lat="44.019985636808876" lon="8.188306504760297"><ele>209.57142857142858</ele><time>2026-04-12T09:13:43Z</time></trkpt><trkpt lat="44.01992111689532" lon="8.188342789573113"><ele>206.85714285714286</ele><time>2026-04-12T09:13:53Z</time></trkpt><trkpt lat="44.01986161872234" lon="8.188380449228207"><ele>204.14285714285714</ele><time>2026-04-12T09:14:25Z</time></trkpt><trkpt lat="44.01979523072685" lon="8.18838189268627"><ele>201.42857142857144</ele><time>2026-04-12T09:14:38Z</time></trkpt><trkpt lat="44.019739136753635" lon="8.188310481472756"><ele>198.71428571428572</ele><time>2026-04-12T09:14:50Z</time></trkpt><trkpt lat="44.01966846918421" lon="8.188265688220428"><ele>196.0</ele><time>2026-04-12T09:15:07.001Z</time></trkpt><trkpt lat="44.0196625094456" lon="8.188358073141242"><ele>192.57142857142858</ele><time>2026-04-12T09:15:17Z</time></trkpt><trkpt lat="44.0196470249406" lon="8.188471537703682"><ele>189.14285714285714</ele><time>2026-04-12T09:15:24Z</time></trkpt><trkpt lat="44.01959554043472" lon="8.188532028628659"><ele>185.71428571428572</ele><time>2026-04-12T09:15:31Z</time></trkpt><trkpt lat="44.0195426055914" lon="8.188587047180706"><ele>182.28571428571428</ele><time>2026-04-12T09:15:38Z</time></trkpt><trkpt lat="44.0194783902548" lon="8.188637663538362"><ele>178.85714285714286</ele><time>2026-04-12T09:15:46Z</time></trkpt><trkpt lat="44.01941623497235" lon="8.188672147293191"><ele>175.42857142857144</ele><time>2026-04-12T09:15:53Z</time></trkpt><trkpt lat="44.0193520207412" lon="8.18870777762622"><ele>172.0</ele><time>2026-04-12T09:16:03Z</time></trkpt><trkpt lat="44.01928454685363" lon="8.18871806408522"><ele>172.00000000000003</ele><time>2026-04-12T09:16:16Z</time></trkpt><trkpt lat="44.019354224517805" lon="8.188701350437219"><ele>172.0</ele><time>2026-04-12T09:16:49Z</time></trkpt><trkpt lat="44.01928206620256" lon="8.188725545901452"><ele>172.0</ele><time>2026-04-12T09:18:28Z</time></trkpt><trkpt lat="44.01921445720254" lon="8.188691282219981"><ele>172.0</ele><time>2026-04-12T09:18:38Z</time></trkpt><trkpt lat="44.0192002768237" lon="8.188587858113996"><ele>172.0</ele><time>2026-04-12T09:18:46Z</time></trkpt><trkpt lat="44.01915377735451" lon="8.188500452216187"><ele>172.00000000000003</ele><time>2026-04-12T09:20:48Z</time></trkpt><trkpt lat="44.01908888797055" lon="8.188483782322773"><ele>172.0</ele><time>2026-04-12T09:21:30.998Z</time></trkpt><trkpt lat="44.01904719938071" lon="8.188400266020976"><ele>166.57142857142858</ele><time>2026-04-12T09:21:37.999Z</time></trkpt><trkpt lat="44.019018393934715" lon="8.188321783234747"><ele>161.14285714285714</ele><time>2026-04-12T09:21:46.999Z</time></trkpt><trkpt lat="44.01895376296964" lon="8.188367378144287"><ele>155.71428571428572</ele><time>2026-04-12T09:21:55.999Z</time></trkpt><trkpt lat="44.01895887543103" lon="8.188460624241378"><ele>150.28571428571428</ele><time>2026-04-12T09:22:02.999Z</time></trkpt><trkpt lat="44.018964489873305" lon="8.188565205850798"><ele>144.85714285714286</ele><time>2026-04-12T09:22:08.999Z</time></trkpt><trkpt lat="44.01894637926468" lon="8.188650804687349"><ele>139.42857142857144</ele><time>2026-04-12T09:22:15.999Z</time></trkpt><trkpt lat="44.01887303492538" lon="8.188711443174265"><ele>134.0</ele><time>2026-04-12T09:22:24Z</time></trkpt><trkpt lat="44.01883343699458" lon="8.188780161254462"><ele>134.0</ele><time>2026-04-12T09:22:31Z</time></trkpt><trkpt lat="44.01879936731816" lon="8.188866140290791"><ele>134.0</ele><time>2026-04-12T09:22:39Z</time></trkpt><trkpt lat="44.0187537164095" lon="8.188929341118511"><ele>134.0</ele><time>2026-04-12T09:22:44Z</time></trkpt><trkpt lat="44.01869106314005" lon="8.188985754332942"><ele>134.0</ele><time>2026-04-12T09:22:52Z</time></trkpt><trkpt lat="44.018654082248666" lon="8.189066118935372"><ele>134.0</ele><time>2026-04-12T09:23:01Z</time></trkpt><trkpt lat="44.018627336270086" lon="8.1891601705631"><ele>134.0</ele><time>2026-04-12T09:23:08Z</time></trkpt><trkpt lat="44.01861760016991" lon="8.189263694816443"><ele>134.0</ele><time>2026-04-12T09:23:14Z</time></trkpt><trkpt lat="44.01864844686921" lon="8.189355127907461"><ele>133.57142857142858</ele><time>2026-04-12T09:23:21Z</time></trkpt><trkpt lat="44.018676814747266" lon="8.189443935091083"><ele>133.14285714285714</ele><time>2026-04-12T09:23:24.999Z</time></trkpt><trkpt lat="44.018663492965175" lon="8.189539080362952"><ele>132.71428571428572</ele><time>2026-04-12T09:23:30Z</time></trkpt><trkpt lat="44.018592318494576" lon="8.189572579046885"><ele>132.28571428571428</ele><time>2026-04-12T09:23:55Z</time></trkpt><trkpt lat="44.01852587388294" lon="8.189598870490236"><ele>131.85714285714286</ele><time>2026-04-12T09:25:17.001Z</time></trkpt><trkpt lat="44.01846353444583" lon="8.18961959689704"><ele>131.42857142857144</ele><time>2026-04-12T09:25:23.001Z</time></trkpt><trkpt lat="44.01841102163506" lon="8.189565468404027"><ele>131.0</ele><time>2026-04-12T09:25:30.998Z</time></trkpt><trkpt lat="44.018354616141" lon="8.189617622949143"><ele>125.28571428571429</ele><time>2026-04-12T09:25:37.999Z</time></trkpt><trkpt lat="44.018295022969475" lon="8.189559233741635"><ele>119.57142857142858</ele><time>2026-04-12T09:25:49.999Z</time></trkpt><trkpt lat="44.01824235207883" lon="8.189609736473344"><ele>113.85714285714286</ele><time>2026-04-12T09:25:54.999Z</time></trkpt><trkpt lat="44.018178918868685" lon="8.18962907620246"><ele>108.14285714285714</ele><time>2026-04-12T09:26:01.999Z</time></trkpt><trkpt lat="44.018115010937585" lon="8.189645553600576"><ele>102.42857142857143</ele><time>2026-04-12T09:26:10Z</time></trkpt><trkpt lat="44.01804553396488" lon="8.189660819884708"><ele>96.71428571428572</ele><time>2026-04-12T09:26:16Z</time></trkpt><trkpt lat="44.01798436930586" lon="8.189682334941667"><ele>91.0</ele><time>2026-04-12T09:26:25Z</time></trkpt><trkpt lat="44.01792900603622" lon="8.189731320951255"><ele>91.0</ele><time>2026-04-12T09:26:30Z</time></trkpt><trkpt lat="44.01788238616288" lon="8.189798804209714"><ele>91.0</ele><time>2026-04-12T09:26:38Z</time></trkpt><trkpt lat="44.01782204254513" lon="8.189832239756566"><ele>91.0</ele><time>2026-04-12T09:26:47Z</time></trkpt><trkpt lat="44.01779282719009" lon="8.189748644902709"><ele>91.0</ele><time>2026-04-12T09:26:55Z</time></trkpt><trkpt lat="44.017798939378324" lon="8.189656105978532"><ele>91.0</ele><time>2026-04-12T09:27:01Z</time></trkpt><trkpt lat="44.0178036042833" lon="8.189563565079048"><ele>91.0</ele><time>2026-04-12T09:27:05.001Z</time></trkpt><trkpt lat="44.01780730892917" lon="8.189459510329348"><ele>91.0</ele><time>2026-04-12T09:27:10.001Z</time></trkpt><trkpt lat="44.017809417786985" lon="8.189369865573072"><ele>91.0</ele><time>2026-04-12T09:27:15.001Z</time></trkpt><trkpt lat="44.01781387003486" lon="8.189281864964682"><ele>91.0</ele><time>2026-04-12T09:27:21.001Z</time></trkpt><trkpt lat="44.01781522310903" lon="8.18918681948781"><ele>91.0</ele><time>2026-04-12T09:27:30.001Z</time></trkpt><trkpt lat="44.01780314445737" lon="8.189098335458159"><ele>91.0</ele><time>2026-04-12T09:27:36Z</time></trkpt><trkpt lat="44.01776985429611" lon="8.189196528350944"><ele>91.0</ele><time>2026-04-12T09:27:54Z</time></trkpt><trkpt lat="44.01773566236587" lon="8.189275158821143"><ele>91.0</ele><time>2026-04-12T09:27:57Z</time></trkpt><trkpt lat="44.017712026089775" lon="8.189374227819961"><ele>91.0</ele><time>2026-04-12T09:28:02Z</time></trkpt><trkpt lat="44.01770060485217" lon="8.189467471419741"><ele>91.0</ele><time>2026-04-12T09:28:07Z</time></trkpt><trkpt lat="44.017671100541435" lon="8.189545136343082"><ele>91.0</ele><time>2026-04-12T09:28:11Z</time></trkpt><trkpt lat="44.017663139868375" lon="8.189638293770367"><ele>91.0</ele><time>2026-04-12T09:28:15.001Z</time></trkpt><trkpt lat="44.01764046663458" lon="8.189723501044876"><ele>91.0</ele><time>2026-04-12T09:28:20.001Z</time></trkpt><trkpt lat="44.01762112951603" lon="8.189810575537454"><ele>91.0</ele><time>2026-04-12T09:28:25.001Z</time></trkpt><trkpt lat="44.01762018123511" lon="8.18990757281641"><ele>91.0</ele><time>2026-04-12T09:28:30.001Z</time></trkpt><trkpt lat="44.017609638953154" lon="8.190000010909694"><ele>91.0</ele><time>2026-04-12T09:28:36.001Z</time></trkpt><trkpt lat="44.017608502998115" lon="8.190092744060303"><ele>91.0</ele><time>2026-04-12T09:28:41.001Z</time></trkpt><trkpt lat="44.01755974607889" lon="8.190187329615057"><ele>91.0</ele><time>2026-04-12T09:28:46.001Z</time></trkpt><trkpt lat="44.01748851198071" lon="8.190158539541102"><ele>91.0</ele><time>2026-04-12T09:28:54.001Z</time></trkpt><trkpt lat="44.017491506736604" lon="8.190068628775002"><ele>91.0</ele><time>2026-04-12T09:28:59.001Z</time></trkpt><trkpt lat="44.0175332394048" lon="8.18998249379018"><ele>91.0</ele><time>2026-04-12T09:29:04.001Z</time></trkpt><trkpt lat="44.01754928336061" lon="8.189881192448043"><ele>91.0</ele><time>2026-04-12T09:29:09.001Z</time></trkpt><trkpt lat="44.01759083569052" lon="8.189801979281656"><ele>91.0</ele><time>2026-04-12T09:29:14.001Z</time></trkpt><trkpt lat="44.0175787723375" lon="8.189710068422531"><ele>91.0</ele><time>2026-04-12T09:29:19.001Z</time></trkpt><trkpt lat="44.01757767748114" lon="8.189612585240171"><ele>91.0</ele><time>2026-04-12T09:29:24.002Z</time></trkpt><trkpt lat="44.017586092402674" lon="8.189508617684575"><ele>91.0</ele><time>2026-04-12T09:29:29.002Z</time></trkpt><trkpt lat="44.01753525276746" lon="8.189447212688322"><ele>91.0</ele><time>2026-04-12T09:29:33.002Z</time></trkpt><trkpt lat="44.01754760256717" lon="8.189341160408167"><ele>91.0</ele><time>2026-04-12T09:29:38.002Z</time></trkpt><trkpt lat="44.01755531318515" lon="8.189242561573625"><ele>91.0</ele><time>2026-04-12T09:29:43.002Z</time></trkpt><trkpt lat="44.017554275880656" lon="8.18914206828004"><ele>91.0</ele><time>2026-04-12T09:29:48.002Z</time></trkpt><trkpt lat="44.017532153649235" lon="8.189059730601405"><ele>92.0</ele><time>2026-04-12T09:29:53.001Z</time></trkpt><trkpt lat="44.017548209382085" lon="8.188972373364647"><ele>93.0</ele><time>2026-04-12T09:29:58.001Z</time></trkpt><trkpt lat="44.017557864814364" lon="8.188867382752141"><ele>94.0</ele><time>2026-04-12T09:30:03.001Z</time></trkpt><trkpt lat="44.017574489970855" lon="8.188766323496749"><ele>95.0</ele><time>2026-04-12T09:30:08.001Z</time></trkpt><trkpt lat="44.01756621056576" lon="8.188670670306749"><ele>96.0</ele><time>2026-04-12T09:30:13.001Z</time></trkpt><trkpt lat="44.01750770131844" lon="8.188627403418273"><ele>97.0</ele><time>2026-04-12T09:30:17.001Z</time></trkpt><trkpt lat="44.017439507545525" lon="8.188579540190775"><ele>98.0</ele><time>2026-04-12T09:30:22.001Z</time></trkpt><trkpt lat="44.01738131739617" lon="8.188525685791872"><ele>92.28571428571429</ele><time>2026-04-12T09:30:27.001Z</time></trkpt><trkpt lat="44.01733445982981" lon="8.18845494201701"><ele>86.57142857142857</ele><time>2026-04-12T09:30:32.001Z</time></trkpt><trkpt lat="44.01729105777824" lon="8.188383608738658"><ele>80.85714285714286</ele><time>2026-04-12T09:30:37.001Z</time></trkpt><trkpt lat="44.017236792678936" lon="8.188318999219682"><ele>75.14285714285714</ele><time>2026-04-12T09:30:42.001Z</time></trkpt><trkpt lat="44.01719675877855" lon="8.188240907694645"><ele>69.42857142857143</ele><time>2026-04-12T09:30:47.001Z</time></trkpt><trkpt lat="44.0171553325844" lon="8.188168182277469"><ele>63.71428571428572</ele><time>2026-04-12T09:30:52.001Z</time></trkpt><trkpt lat="44.0170999394691" lon="8.188106409623387"><ele>58.00000000000001</ele><time>2026-04-12T09:30:58.001Z</time></trkpt><trkpt lat="44.017075119230114" lon="8.188002467073352"><ele>58.00000000000001</ele><time>2026-04-12T09:31:03.001Z</time></trkpt><trkpt lat="44.01706618247869" lon="8.187905882717892"><ele>58.0</ele><time>2026-04-12T09:31:08.001Z</time></trkpt><trkpt lat="44.017066195270864" lon="8.187806847459678"><ele>58.00000000000001</ele><time>2026-04-12T09:31:13.001Z</time></trkpt><trkpt lat="44.0170824514008" lon="8.187714279414612"><ele>58.00000000000001</ele><time>2026-04-12T09:31:18.001Z</time></trkpt><trkpt lat="44.01710893563506" lon="8.187626811587299"><ele>58.0</ele><time>2026-04-12T09:31:23.002Z</time></trkpt><trkpt lat="44.01716116479154" lon="8.187559048672377"><ele>58.00000000000001</ele><time>2026-04-12T09:31:28.002Z</time></trkpt><trkpt lat="44.01723731600977" lon="8.187522422830419"><ele>58.00000000000001</ele><time>2026-04-12T09:31:33.002Z</time></trkpt><trkpt lat="44.01725776967071" lon="8.187422780255748"><ele>59.42857142857144</ele><time>2026-04-12T09:31:38.002Z</time></trkpt><trkpt lat="44.01727000106644" lon="8.187321300139342"><ele>60.85714285714286</ele><time>2026-04-12T09:31:43.002Z</time></trkpt><trkpt lat="44.01724619159794" lon="8.187224348690405"><ele>62.285714285714285</ele><time>2026-04-12T09:31:48.002Z</time></trkpt><trkpt lat="44.01718213406981" lon="8.187181419160513"><ele>63.714285714285715</ele><time>2026-04-12T09:31:52.002Z</time></trkpt><trkpt lat="44.01711607296482" lon="8.187147138988987"><ele>65.14285714285714</ele><time>2026-04-12T09:31:57.002Z</time></trkpt><trkpt lat="44.017056656844055" lon="8.187102383028897"><ele>66.57142857142857</ele><time>2026-04-12T09:32:02.001Z</time></trkpt><trkpt lat="44.016986951563226" lon="8.187067057262079"><ele>68.0</ele><time>2026-04-12T09:32:07.001Z</time></trkpt><trkpt lat="44.01696348601737" lon="8.186983168248881"><ele>67.99999999999999</ele><time>2026-04-12T09:32:11.001Z</time></trkpt><trkpt lat="44.01690116436644" lon="8.186930130740551"><ele>68.0</ele><time>2026-04-12T09:32:16.001Z</time></trkpt><trkpt lat="44.01685437320903" lon="8.186856082310788"><ele>68.0</ele><time>2026-04-12T09:32:21.001Z</time></trkpt><trkpt lat="44.0167920317349" lon="8.186813553525953"><ele>68.0</ele><time>2026-04-12T09:32:26.001Z</time></trkpt><trkpt lat="44.01673474165956" lon="8.186766414161793"><ele>68.0</ele><time>2026-04-12T09:32:31.001Z</time></trkpt><trkpt lat="44.01666830063033" lon="8.18674396147509"><ele>67.99999999999999</ele><time>2026-04-12T09:32:36.001Z</time></trkpt><trkpt lat="44.01663086154543" lon="8.186667707537039"><ele>68.0</ele><time>2026-04-12T09:32:41.001Z</time></trkpt><trkpt lat="44.01659886887294" lon="8.186568095890216"><ele>61.99999999999999</ele><time>2026-04-12T09:32:47.001Z</time></trkpt><trkpt lat="44.01658930580725" lon="8.186465943230884"><ele>56.0</ele><time>2026-04-12T09:32:53.001Z</time></trkpt><trkpt lat="44.01657557490022" lon="8.186379127499064"><ele>50.0</ele><time>2026-04-12T09:32:58.001Z</time></trkpt><trkpt lat="44.01656980028095" lon="8.186283874342434"><ele>44.0</ele><time>2026-04-12T09:33:03.001Z</time></trkpt><trkpt lat="44.016555979845094" lon="8.186182131044276"><ele>38.0</ele><time>2026-04-12T09:33:08.001Z</time></trkpt><trkpt lat="44.01652327325819" lon="8.186096443533001"><ele>32.0</ele><time>2026-04-12T09:33:13.001Z</time></trkpt><trkpt lat="44.016486445295605" lon="8.186011890209755"><ele>26.0</ele><time>2026-04-12T09:33:18.001Z</time></trkpt><trkpt lat="44.01646389712244" lon="8.185926388254108"><ele>26.0</ele><time>2026-04-12T09:33:23.001Z</time></trkpt><trkpt lat="44.01642814269678" lon="8.1858524276819"><ele>26.0</ele><time>2026-04-12T09:33:28.001Z</time></trkpt><trkpt lat="44.016387599726414" lon="8.185770951795996"><ele>26.0</ele><time>2026-04-12T09:33:33.001Z</time></trkpt><trkpt lat="44.016367772951426" lon="8.185684829185847"><ele>26.0</ele><time>2026-04-12T09:33:38.001Z</time></trkpt><trkpt lat="44.01635035343973" lon="8.185588897237924"><ele>26.0</ele><time>2026-04-12T09:33:43.001Z</time></trkpt><trkpt lat="44.01632817176681" lon="8.185500001277346"><ele>26.0</ele><time>2026-04-12T09:33:48.001Z</time></trkpt><trkpt lat="44.016305690035146" lon="8.185400102368455"><ele>26.0</ele><time>2026-04-12T09:33:53.002Z</time></trkpt><trkpt lat="44.01633727106729" lon="8.185312261728072"><ele>26.285714285714285</ele><time>2026-04-12T09:33:58.002Z</time></trkpt><trkpt lat="44.01632609046994" lon="8.185221374173022"><ele>26.571428571428573</ele><time>2026-04-12T09:34:03.001Z</time></trkpt><trkpt lat="44.01634295630557" lon="8.185133508903315"><ele>26.857142857142858</ele><time>2026-04-12T09:34:07.001Z</time></trkpt><trkpt lat="44.016309172953086" lon="8.185044205747946"><ele>27.142857142857142</ele><time>2026-04-12T09:34:12.001Z</time></trkpt><trkpt lat="44.01629488801961" lon="8.18494631204319"><ele>27.42857142857143</ele><time>2026-04-12T09:34:17.001Z</time></trkpt><trkpt lat="44.01624339655167" lon="8.184872928555421"><ele>27.714285714285715</ele><time>2026-04-12T09:34:23.001Z</time></trkpt><trkpt lat="44.016211650914286" lon="8.184791693977143"><ele>28.0</ele><time>2026-04-12T09:34:28.001Z</time></trkpt><trkpt lat="44.01619477828516" lon="8.184706553305693"><ele>28.857142857142858</ele><time>2026-04-12T09:34:33.001Z</time></trkpt><trkpt lat="44.01617645361752" lon="8.184618054709105"><ele>29.714285714285715</ele><time>2026-04-12T09:34:38.001Z</time></trkpt><trkpt lat="44.016173868512794" lon="8.184516884275377"><ele>30.57142857142857</ele><time>2026-04-12T09:34:44.001Z</time></trkpt><trkpt lat="44.01616811498994" lon="8.184424320777637"><ele>31.428571428571427</ele><time>2026-04-12T09:34:49.001Z</time></trkpt><trkpt lat="44.01612649676267" lon="8.184356685734006"><ele>32.285714285714285</ele><time>2026-04-12T09:34:54.001Z</time></trkpt><trkpt lat="44.01611096322106" lon="8.184266666517235"><ele>33.14285714285714</ele><time>2026-04-12T09:34:59.001Z</time></trkpt><trkpt lat="44.01609659198472" lon="8.18417536542309"><ele>34.0</ele><time>2026-04-12T09:35:04.001Z</time></trkpt><trkpt lat="44.01605767729906" lon="8.184102420450714"><ele>33.99999999999999</ele><time>2026-04-12T09:35:09.001Z</time></trkpt><trkpt lat="44.01601409047241" lon="8.184032425602462"><ele>34.0</ele><time>2026-04-12T09:35:14.001Z</time></trkpt><trkpt lat="44.01598307818449" lon="8.183953121078973"><ele>34.0</ele><time>2026-04-12T09:35:19.001Z</time></trkpt><trkpt lat="44.015948360260424" lon="8.183869672303755"><ele>34.0</ele><time>2026-04-12T09:35:24.001Z</time></trkpt><trkpt lat="44.01591403262275" lon="8.183787456902268"><ele>34.0</ele><time>2026-04-12T09:35:29.001Z</time></trkpt><trkpt lat="44.01588888971562" lon="8.183696146357727"><ele>33.99999999999999</ele><time>2026-04-12T09:35:34.001Z</time></trkpt><trkpt lat="44.0158467717472" lon="8.18361293805755"><ele>34.0</ele><time>2026-04-12T09:35:39.001Z</time></trkpt><trkpt lat="44.01579561024483" lon="8.18354615147845"><ele>32.71428571428571</ele><time>2026-04-12T09:35:44.001Z</time></trkpt><trkpt lat="44.01575355672908" lon="8.18348046996307"><ele>31.428571428571427</ele><time>2026-04-12T09:35:49.001Z</time></trkpt><trkpt lat="44.01570594650124" lon="8.183399865949502"><ele>30.142857142857142</ele><time>2026-04-12T09:35:54.001Z</time></trkpt><trkpt lat="44.01566140431987" lon="8.183331104437437"><ele>28.857142857142854</ele><time>2026-04-12T09:35:59.001Z</time></trkpt><trkpt lat="44.01560449849885" lon="8.183269052111296"><ele>27.57142857142857</ele><time>2026-04-12T09:36:04.001Z</time></trkpt><trkpt lat="44.015536790419766" lon="8.183221826517064"><ele>26.28571428571429</ele><time>2026-04-12T09:36:09.001Z</time></trkpt><trkpt lat="44.015475053020914" lon="8.183170805552905"><ele>25.0</ele><time>2026-04-12T09:36:15.001Z</time></trkpt><trkpt lat="44.01541883565035" lon="8.18311901652451"><ele>25.000000000000004</ele><time>2026-04-12T09:36:21.001Z</time></trkpt><trkpt lat="44.0153524735104" lon="8.183076723565591"><ele>25.0</ele><time>2026-04-12T09:36:27.001Z</time></trkpt><trkpt lat="44.015298689902814" lon="8.183016136855702"><ele>25.0</ele><time>2026-04-12T09:36:33Z</time></trkpt><trkpt lat="44.01525047289964" lon="8.182941744041953"><ele>25.0</ele><time>2026-04-12T09:36:40Z</time></trkpt><trkpt lat="44.01520058265831" lon="8.18288256917323"><ele>25.0</ele><time>2026-04-12T09:36:45Z</time></trkpt><trkpt lat="44.01514722900051" lon="8.18282785340413"><ele>25.000000000000004</ele><time>2026-04-12T09:36:51Z</time></trkpt><trkpt lat="44.01510314220226" lon="8.182764360172241"><ele>25.0</ele><time>2026-04-12T09:36:56Z</time></trkpt><trkpt lat="44.015059968792364" lon="8.182687576619362"><ele>25.000000000000004</ele><time>2026-04-12T09:37:02Z</time></trkpt><trkpt lat="44.01501428801695" lon="8.182617684359561"><ele>25.0</ele><time>2026-04-12T09:37:08Z</time></trkpt><trkpt lat="44.01497370759662" lon="8.182540061570576"><ele>25.0</ele><time>2026-04-12T09:37:14Z</time></trkpt><trkpt lat="44.01493556366847" lon="8.182614903823104"><ele>25.0</ele><time>2026-04-12T09:37:21Z</time></trkpt><trkpt lat="44.014949914330465" lon="8.182707390784161"><ele>25.0</ele><time>2026-04-12T09:37:26Z</time></trkpt><trkpt lat="44.01497914552005" lon="8.182788453921653"><ele>25.000000000000004</ele><time>2026-04-12T09:37:30Z</time></trkpt><trkpt lat="44.01497684192259" lon="8.1828881495056"><ele>25.0</ele><time>2026-04-12T09:37:34Z</time></trkpt><trkpt lat="44.01502399021475" lon="8.18295276617526"><ele>25.000000000000004</ele><time>2026-04-12T09:37:38Z</time></trkpt><trkpt lat="44.015048047063736" lon="8.183048448872734"><ele>25.0</ele><time>2026-04-12T09:37:43Z</time></trkpt><trkpt lat="44.015057900841285" lon="8.183139236946472"><ele>25.0</ele><time>2026-04-12T09:37:48Z</time></trkpt><trkpt lat="44.01500256481904" lon="8.183181687858047"><ele>25.0</ele><time>2026-04-12T09:37:55Z</time></trkpt><trkpt lat="44.01495867490574" lon="8.183102688894838"><ele>25.0</ele><time>2026-04-12T09:38:00Z</time></trkpt><trkpt lat="44.01494261487712" lon="8.183001722519016"><ele>25.000000000000004</ele><time>2026-04-12T09:38:05Z</time></trkpt><trkpt lat="44.014915751146056" lon="8.182908013699448"><ele>25.0</ele><time>2026-04-12T09:38:10Z</time></trkpt><trkpt lat="44.01489162016969" lon="8.182823844132242"><ele>23.000000000000004</ele><time>2026-04-12T09:38:14Z</time></trkpt><trkpt lat="44.01486924634923" lon="8.182732476390612"><ele>21.0</ele><time>2026-04-12T09:38:19Z</time></trkpt><trkpt lat="44.014799486132496" lon="8.182696917821877"><ele>19.0</ele><time>2026-04-12T09:38:30Z</time></trkpt><trkpt lat="44.014728377769124" lon="8.182742090531606"><ele>17.0</ele><time>2026-04-12T09:38:33Z</time></trkpt><trkpt lat="44.01466625236256" lon="8.182795895987764"><ele>15.0</ele><time>2026-04-12T09:38:36Z</time></trkpt><trkpt lat="44.01462105468698" lon="8.182865947210653"><ele>13.0</ele><time>2026-04-12T09:38:40Z</time></trkpt><trkpt lat="44.014566047442116" lon="8.182917133569163"><ele>11.0</ele><time>2026-04-12T09:38:44Z</time></trkpt><trkpt lat="44.01452371693515" lon="8.182982540964074"><ele>11.0</ele><time>2026-04-12T09:38:48Z</time></trkpt><trkpt lat="44.014451617372494" lon="8.183014714478265"><ele>11.0</ele><time>2026-04-12T09:38:53Z</time></trkpt><trkpt lat="44.01439090016721" lon="8.18305851817715"><ele>11.0</ele><time>2026-04-12T09:38:58Z</time></trkpt><trkpt lat="44.014443592974644" lon="8.183132976883536"><ele>11.0</ele><time>2026-04-12T09:39:04Z</time></trkpt><trkpt lat="44.014506287046906" lon="8.183177407200485"><ele>11.0</ele><time>2026-04-12T09:39:08Z</time></trkpt><trkpt lat="44.0145589330909" lon="8.18324829402323"><ele>11.0</ele><time>2026-04-12T09:39:13Z</time></trkpt><trkpt lat="44.01460144681918" lon="8.183318239141018"><ele>11.0</ele><time>2026-04-12T09:39:17Z</time></trkpt><trkpt lat="44.01462740117086" lon="8.183402933362384"><ele>10.142857142857142</ele><time>2026-04-12T09:39:21Z</time></trkpt><trkpt lat="44.01464629530581" lon="8.183504150024964"><ele>9.285714285714285</ele><time>2026-04-12T09:39:26Z</time></trkpt><trkpt lat="44.01468998163824" lon="8.183574411948108"><ele>8.428571428571429</ele><time>2026-04-12T09:39:31Z</time></trkpt><trkpt lat="44.01472256960219" lon="8.183661405492767"><ele>7.571428571428571</ele><time>2026-04-12T09:39:36Z</time></trkpt><trkpt lat="44.014766772040105" lon="8.183738883986692"><ele>6.714285714285714</ele><time>2026-04-12T09:39:41Z</time></trkpt><trkpt lat="44.01480410362733" lon="8.183826470231327"><ele>5.857142857142857</ele><time>2026-04-12T09:39:46Z</time></trkpt><trkpt lat="44.01485298998658" lon="8.183909020222883"><ele>5.0</ele><time>2026-04-12T09:39:52Z</time></trkpt><trkpt lat="44.01487638830273" lon="8.183992109900238"><ele>4.428571428571429</ele><time>2026-04-12T09:39:56Z</time></trkpt><trkpt lat="44.014902423439324" lon="8.184085108298252"><ele>3.857142857142857</ele><time>2026-04-12T09:40:01Z</time></trkpt><trkpt lat="44.0149308818926" lon="8.184166150276669"><ele>3.2857142857142856</ele><time>2026-04-12T09:40:06Z</time></trkpt><trkpt lat="44.014969283415745" lon="8.184251698330073"><ele>2.7142857142857144</ele><time>2026-04-12T09:40:11Z</time></trkpt><trkpt lat="44.015005508777534" lon="8.184325892010701"><ele>2.142857142857143</ele><time>2026-04-12T09:40:51Z</time></trkpt><trkpt lat="44.015042823389564" lon="8.184404989715114"><ele>1.5714285714285714</ele><time>2026-04-12T09:40:55Z</time></trkpt><trkpt lat="44.015069246945856" lon="8.184494379045825"><ele>1.0</ele><time>2026-04-12T09:41:00Z</time></trkpt><trkpt lat="44.015107730417256" lon="8.184584424735705"><ele>1.5714285714285714</ele><time>2026-04-12T09:41:05Z</time></trkpt><trkpt lat="44.015129960374935" lon="8.18466905789709"><ele>2.142857142857143</ele><time>2026-04-12T09:41:09Z</time></trkpt><trkpt lat="44.01516963924691" lon="8.184756886524061"><ele>2.7142857142857144</ele><time>2026-04-12T09:41:14Z</time></trkpt><trkpt lat="44.015213267107654" lon="8.184840185405426"><ele>3.2857142857142856</ele><time>2026-04-12T09:41:19Z</time></trkpt><trkpt lat="44.015239729530805" lon="8.184921031632324"><ele>3.857142857142857</ele><time>2026-04-12T09:41:23Z</time></trkpt><trkpt lat="44.015271093161466" lon="8.18502247684692"><ele>4.428571428571429</ele><time>2026-04-12T09:41:28Z</time></trkpt><trkpt lat="44.01529486973165" lon="8.18510641218984"><ele>5.0</ele><time>2026-04-12T09:41:32Z</time></trkpt><trkpt lat="44.01531899676427" lon="8.185208555152961"><ele>5.0</ele><time>2026-04-12T09:41:37Z</time></trkpt><trkpt lat="44.01535919543529" lon="8.185290000854916"><ele>5.0</ele><time>2026-04-12T09:41:42Z</time></trkpt><trkpt lat="44.01537162745411" lon="8.185383993230156"><ele>5.0</ele><time>2026-04-12T09:41:47Z</time></trkpt><trkpt lat="44.01540338627661" lon="8.185479718749747"><ele>5.0</ele><time>2026-04-12T09:41:52Z</time></trkpt><trkpt lat="44.01544129817889" lon="8.185572616162165"><ele>5.0</ele><time>2026-04-12T09:41:57Z</time></trkpt><trkpt lat="44.0154628437751" lon="8.185666668860542"><ele>5.0</ele><time>2026-04-12T09:42:03Z</time></trkpt><trkpt lat="44.0154763261266" lon="8.185761648395669"><ele>5.0</ele><time>2026-04-12T09:42:08Z</time></trkpt><trkpt lat="44.015473648891664" lon="8.18586413746625"><ele>4.571428571428571</ele><time>2026-04-12T09:42:13Z</time></trkpt><trkpt lat="44.0154816346734" lon="8.185964220647785"><ele>4.142857142857143</ele><time>2026-04-12T09:42:18Z</time></trkpt><trkpt lat="44.01548236272592" lon="8.18605539344095"><ele>3.7142857142857144</ele><time>2026-04-12T09:42:23Z</time></trkpt><trkpt lat="44.01548760703238" lon="8.186149879573659"><ele>3.2857142857142856</ele><time>2026-04-12T09:42:28Z</time></trkpt><trkpt lat="44.015476962660806" lon="8.186251722882153"><ele>2.8571428571428568</ele><time>2026-04-12T09:42:33Z</time></trkpt><trkpt lat="44.01548700335416" lon="8.186349138648753"><ele>2.4285714285714284</ele><time>2026-04-12T09:42:38Z</time></trkpt><trkpt lat="44.015504384077644" lon="8.186452077341714"><ele>2.0</ele><time>2026-04-12T09:42:44Z</time></trkpt><trkpt lat="44.01550021209277" lon="8.186550022135933"><ele>2.0</ele><time>2026-04-12T09:42:49Z</time></trkpt><trkpt lat="44.01550362244282" lon="8.186638530780165"><ele>1.9999999999999998</ele><time>2026-04-12T09:42:54Z</time></trkpt><trkpt lat="44.01550938007817" lon="8.1867409084267"><ele>2.0</ele><time>2026-04-12T09:42:59Z</time></trkpt><trkpt lat="44.015512092187045" lon="8.186845178788372"><ele>2.0</ele><time>2026-04-12T09:43:04Z</time></trkpt><trkpt lat="44.01553307131835" lon="8.1869455049445"><ele>1.9999999999999998</ele><time>2026-04-12T09:43:10Z</time></trkpt><trkpt lat="44.01554855620128" lon="8.187043790535284"><ele>2.0</ele><time>2026-04-12T09:43:15Z</time></trkpt><trkpt lat="44.01555988962882" lon="8.187153467540728"><ele>2.0</ele><time>2026-04-12T09:43:20Z</time></trkpt><trkpt lat="44.01558468960298" lon="8.187243195860562"><ele>2.0</ele><time>2026-04-12T09:43:25Z</time></trkpt><trkpt lat="44.01561214569669" lon="8.18733997560532"><ele>1.9999999999999998</ele><time>2026-04-12T09:43:30Z</time></trkpt><trkpt lat="44.015625622066025" lon="8.187442465662086"><ele>2.0</ele><time>2026-04-12T09:43:35Z</time></trkpt><trkpt lat="44.015623427300525" lon="8.187546974695067"><ele>2.0</ele><time>2026-04-12T09:43:40Z</time></trkpt><trkpt lat="44.01562467050324" lon="8.187649646131433"><ele>1.9999999999999998</ele><time>2026-04-12T09:43:45Z</time></trkpt><trkpt lat="44.01562996849354" lon="8.187745658622932"><ele>2.0</ele><time>2026-04-12T09:43:50Z</time></trkpt><trkpt lat="44.01561857934722" lon="8.1878454587167"><ele>2.0</ele><time>2026-04-12T09:43:55Z</time></trkpt><trkpt lat="44.015621660231204" lon="8.18794501924956"><ele>2.142857142857143</ele><time>2026-04-12T09:44:00Z</time></trkpt><trkpt lat="44.01563182808243" lon="8.188035980365004"><ele>2.2857142857142856</ele><time>2026-04-12T09:44:06Z</time></trkpt><trkpt lat="44.01565915256402" lon="8.188120723904678"><ele>2.4285714285714284</ele><time>2026-04-12T09:44:11Z</time></trkpt><trkpt lat="44.01566892904468" lon="8.188213108113562"><ele>2.571428571428571</ele><time>2026-04-12T09:44:16Z</time></trkpt><trkpt lat="44.01567392795687" lon="8.188305281694573"><ele>2.7142857142857144</ele><time>2026-04-12T09:44:21Z</time></trkpt><trkpt lat="44.015688728314984" lon="8.188398650788985"><ele>2.8571428571428568</ele><time>2026-04-12T09:44:27Z</time></trkpt><trkpt lat="44.0157160054533" lon="8.188479680444415"><ele>3.0</ele><time>2026-04-12T09:44:31Z</time></trkpt><trkpt lat="44.015724746730776" lon="8.188569235748721"><ele>2.714285714285714</ele><time>2026-04-12T09:44:35Z</time></trkpt><trkpt lat="44.01574457192199" lon="8.1886546966777"><ele>2.4285714285714284</ele><time>2026-04-12T09:44:40Z</time></trkpt><trkpt lat="44.01576295665304" lon="8.188755643207793"><ele>2.142857142857143</ele><time>2026-04-12T09:44:45Z</time></trkpt><trkpt lat="44.015793765474875" lon="8.188838619594488"><ele>1.857142857142857</ele><time>2026-04-12T09:44:50Z</time></trkpt><trkpt lat="44.01581789271368" lon="8.188925740726594"><ele>1.5714285714285712</ele><time>2026-04-12T09:44:55Z</time></trkpt><trkpt lat="44.015857709671494" lon="8.189003606956488"><ele>1.2857142857142856</ele><time>2026-04-12T09:45:00Z</time></trkpt><trkpt lat="44.015879435852284" lon="8.189089474819246"><ele>1.0</ele><time>2026-04-12T09:45:05Z</time></trkpt><trkpt lat="44.01590822233622" lon="8.189169662992091"><ele>2.4285714285714284</ele><time>2026-04-12T09:45:10Z</time></trkpt><trkpt lat="44.015926695135974" lon="8.189275195807419"><ele>3.8571428571428568</ele><time>2026-04-12T09:45:15Z</time></trkpt><trkpt lat="44.01594992850709" lon="8.189383719559306"><ele>5.285714285714286</ele><time>2026-04-12T09:45:20Z</time></trkpt><trkpt lat="44.01595191278126" lon="8.18947324532061"><ele>6.714285714285714</ele><time>2026-04-12T09:45:24Z</time></trkpt><trkpt lat="44.01594891694276" lon="8.189576435594587"><ele>8.142857142857142</ele><time>2026-04-12T09:45:29Z</time></trkpt><trkpt lat="44.01598180260678" lon="8.189671041103868"><ele>9.571428571428571</ele><time>2026-04-12T09:45:34Z</time></trkpt><trkpt lat="44.016047079266414" lon="8.18971790139494"><ele>11.0</ele><time>2026-04-12T09:45:39Z</time></trkpt><trkpt lat="44.01610580312449" lon="8.18965429870573"><ele>1.0</ele><time>2026-04-12T09:46:07.303Z</time></trkpt><trkpt lat="44.01562118594908" lon="8.188952531736351"><ele>11.0</ele><time>2026-04-12T09:46:09.681Z</time></trkpt><trkpt lat="44.016128545034405" lon="8.189706712174992"><ele>11.0</ele><time>2026-04-12T09:46:14.861Z</time></trkpt><trkpt lat="44.01582066905862" lon="8.189222011785285"><ele>11.0</ele><time>2026-04-12T09:46:32.035Z</time></trkpt><trkpt lat="44.01567133122306" lon="8.188978859962187"><ele>11.0</ele><time>2026-04-12T09:46:38.016Z</time></trkpt><trkpt lat="44.01595909927734" lon="8.189677021831802"><ele>11.0</ele><time>2026-04-12T09:48:45Z</time></trkpt><trkpt lat="44.01592143002117" lon="8.189762792781181"><ele>11.0</ele><time>2026-04-12T09:48:49Z</time></trkpt><trkpt lat="44.015884888678045" lon="8.189837409692684"><ele>11.0</ele><time>2026-04-12T09:48:54Z</time></trkpt><trkpt lat="44.01587651704127" lon="8.189935530754832"><ele>11.0</ele><time>2026-04-12T09:48:59Z</time></trkpt><trkpt lat="44.015874594797566" lon="8.190033373553243"><ele>11.0</ele><time>2026-04-12T09:49:04Z</time></trkpt><trkpt lat="44.015858448983295" lon="8.190130091292248"><ele>11.0</ele><time>2026-04-12T09:49:09Z</time></trkpt><trkpt lat="44.01584481782769" lon="8.190230862045185"><ele>11.0</ele><time>2026-04-12T09:49:14Z</time></trkpt><trkpt lat="44.01584232977531" lon="8.190332121047378"><ele>11.285714285714286</ele><time>2026-04-12T09:49:19Z</time></trkpt><trkpt lat="44.015832616666785" lon="8.190420958365136"><ele>11.571428571428571</ele><time>2026-04-12T09:49:24Z</time></trkpt><trkpt lat="44.01580654960466" lon="8.190519366004533"><ele>11.857142857142858</ele><time>2026-04-12T09:49:29Z</time></trkpt><trkpt lat="44.01579233924261" lon="8.190610811790341"><ele>12.142857142857142</ele><time>2026-04-12T09:49:34Z</time></trkpt><trkpt lat="44.01577829274928" lon="8.190703093990708"><ele>12.428571428571429</ele><time>2026-04-12T09:49:39Z</time></trkpt><trkpt lat="44.0157373344647" lon="8.190780614449013"><ele>12.714285714285714</ele><time>2026-04-12T09:49:44Z</time></trkpt><trkpt lat="44.015708156002844" lon="8.190869908017762"><ele>13.0</ele><time>2026-04-12T09:49:49Z</time></trkpt><trkpt lat="44.01567615805585" lon="8.190950344716272"><ele>11.571428571428571</ele><time>2026-04-12T09:49:54Z</time></trkpt><trkpt lat="44.01564708551595" lon="8.19104449862757"><ele>10.142857142857144</ele><time>2026-04-12T09:49:59Z</time></trkpt><trkpt lat="44.01563267629802" lon="8.191132559174061"><ele>8.714285714285715</ele><time>2026-04-12T09:50:04Z</time></trkpt><trkpt lat="44.015605014008806" lon="8.191227086407382"><ele>7.285714285714286</ele><time>2026-04-12T09:50:10Z</time></trkpt><trkpt lat="44.015590916662845" lon="8.19131372741121"><ele>5.857142857142858</ele><time>2026-04-12T09:50:15Z</time></trkpt><trkpt lat="44.01558754833198" lon="8.19140463825176"><ele>4.428571428571429</ele><time>2026-04-12T09:50:20Z</time></trkpt><trkpt lat="44.01560336835423" lon="8.191500201187743"><ele>3.0</ele><time>2026-04-12T09:50:26Z</time></trkpt><trkpt lat="44.01563199072986" lon="8.191588601324565"><ele>2.9999999999999996</ele><time>2026-04-12T09:50:32Z</time></trkpt><trkpt lat="44.01563936726444" lon="8.191683591427022"><ele>3.0</ele><time>2026-04-12T09:50:38Z</time></trkpt><trkpt lat="44.01564431078645" lon="8.191791597051743"><ele>3.0</ele><time>2026-04-12T09:50:44Z</time></trkpt><trkpt lat="44.015680338859326" lon="8.191876349423454"><ele>3.0</ele><time>2026-04-12T09:50:51Z</time></trkpt><trkpt lat="44.01568406471064" lon="8.191971181585762"><ele>3.0</ele><time>2026-04-12T09:50:56Z</time></trkpt><trkpt lat="44.01569494125242" lon="8.19207540384839"><ele>2.9999999999999996</ele><time>2026-04-12T09:51:01Z</time></trkpt><trkpt lat="44.01571211029796" lon="8.192164568365735"><ele>3.0</ele><time>2026-04-12T09:51:05Z</time></trkpt><trkpt lat="44.01572804644303" lon="8.192254519744163"><ele>2.9999999999999996</ele><time>2026-04-12T09:51:09Z</time></trkpt><trkpt lat="44.015743934576946" lon="8.192339336978712"><ele>3.0</ele><time>2026-04-12T09:51:13Z</time></trkpt><trkpt lat="44.01573501593554" lon="8.19243179995177"><ele>3.0</ele><time>2026-04-12T09:51:17Z</time></trkpt><trkpt lat="44.01577539952738" lon="8.192504040735548"><ele>3.0</ele><time>2026-04-12T09:51:21Z</time></trkpt><trkpt lat="44.01577331387732" lon="8.192602593014708"><ele>3.0</ele><time>2026-04-12T09:51:25Z</time></trkpt><trkpt lat="44.015785661506406" lon="8.192710655073093"><ele>2.9999999999999996</ele><time>2026-04-12T09:51:30Z</time></trkpt><trkpt lat="44.01583804774399" lon="8.192770180868338"><ele>3.0</ele><time>2026-04-12T09:51:34Z</time></trkpt><trkpt lat="44.01591404433388" lon="8.19279396431863"><ele>3.4285714285714284</ele><time>2026-04-12T09:51:38Z</time></trkpt><trkpt lat="44.0159637924331" lon="8.192858204974275"><ele>3.8571428571428568</ele><time>2026-04-12T09:51:44Z</time></trkpt><trkpt lat="44.016043657915155" lon="8.192858204845775"><ele>4.285714285714286</ele><time>2026-04-12T09:51:52Z</time></trkpt><trkpt lat="44.01611265087363" lon="8.192809086391781"><ele>4.7142857142857135</ele><time>2026-04-12T09:51:54Z</time></trkpt><trkpt lat="44.016174178596685" lon="8.19278751538302"><ele>5.142857142857142</ele><time>2026-04-12T09:51:58Z</time></trkpt><trkpt lat="44.016238354019286" lon="8.192739055522832"><ele>5.571428571428571</ele><time>2026-04-12T09:52:03Z</time></trkpt><trkpt lat="44.01630675326489" lon="8.192699975439135"><ele>6.0</ele><time>2026-04-12T09:52:08Z</time></trkpt><trkpt lat="44.01637523637919" lon="8.192656766053997"><ele>5.999999999999999</ele><time>2026-04-12T09:52:13Z</time></trkpt><trkpt lat="44.016437743537914" lon="8.192612531242464"><ele>6.0</ele><time>2026-04-12T09:52:19Z</time></trkpt><trkpt lat="44.01650663137281" lon="8.19257668322516"><ele>6.0</ele><time>2026-04-12T09:52:24Z</time></trkpt><trkpt lat="44.01657329509637" lon="8.19252722596451"><ele>6.0</ele><time>2026-04-12T09:52:31Z</time></trkpt><trkpt lat="44.01664356477118" lon="8.192476473799921"><ele>6.0</ele><time>2026-04-12T09:52:37Z</time></trkpt><trkpt lat="44.01670619131468" lon="8.192426340293471"><ele>5.999999999999999</ele><time>2026-04-12T09:52:43Z</time></trkpt><trkpt lat="44.01675587996418" lon="8.192364617596905"><ele>6.0</ele><time>2026-04-12T09:52:48Z</time></trkpt><trkpt lat="44.01682394393542" lon="8.192315456758811"><ele>11.6</ele><time>2026-04-12T09:52:53Z</time></trkpt><trkpt lat="44.016895589993275" lon="8.192283396989245"><ele>17.2</ele><time>2026-04-12T09:53:39Z</time></trkpt><trkpt lat="44.01695703237823" lon="8.192241457552353"><ele>22.799999999999997</ele><time>2026-04-12T09:54:15Z</time></trkpt><trkpt lat="44.01707074344741" lon="8.192237903096602"><ele>28.4</ele><time>2026-04-12T09:55:22Z</time></trkpt><trkpt lat="44.016966330872314" lon="8.192052593815703"><ele>34.0</ele><time>2026-04-12T09:55:27Z</time></trkpt><trkpt lat="44.01704824028694" lon="8.191833177248224"><ele>34.0</ele><time>2026-04-12T09:55:29Z</time></trkpt><trkpt lat="44.01699939119195" lon="8.192231374638903"><ele>34.0</ele><time>2026-04-12T09:55:52Z</time></trkpt><trkpt lat="44.016980975324586" lon="8.1923264930882"><ele>34.0</ele><time>2026-04-12T09:56:38Z</time></trkpt><trkpt lat="44.01691872050708" lon="8.192360372819643"><ele>34.0</ele><time>2026-04-12T09:57:21Z</time></trkpt><trkpt lat="44.01685708812771" lon="8.192336359711513"><ele>30.14285714285714</ele><time>2026-04-12T09:57:25Z</time></trkpt><trkpt lat="44.01678761522956" lon="8.19234835102007"><ele>26.285714285714285</ele><time>2026-04-12T09:57:29Z</time></trkpt><trkpt lat="44.01671553592954" lon="8.192374302411437"><ele>22.428571428571427</ele><time>2026-04-12T09:57:34Z</time></trkpt><trkpt lat="44.01666435798381" lon="8.192435423787453"><ele>18.57142857142857</ele><time>2026-04-12T09:57:39Z</time></trkpt><trkpt lat="44.01660753513278" lon="8.192485369887077"><ele>14.714285714285714</ele><time>2026-04-12T09:57:44Z</time></trkpt><trkpt lat="44.016545589511125" lon="8.192519338765882"><ele>10.857142857142858</ele><time>2026-04-12T09:57:49Z</time></trkpt><trkpt lat="44.016481156358985" lon="8.19256811556536"><ele>7.0</ele><time>2026-04-12T09:57:55Z</time></trkpt><trkpt lat="44.01640221917028" lon="8.192587570625957"><ele>6.857142857142857</ele><time>2026-04-12T09:58:01Z</time></trkpt><trkpt lat="44.01634128505021" lon="8.192638248974458"><ele>6.714285714285714</ele><time>2026-04-12T09:58:06Z</time></trkpt><trkpt lat="44.01637716697125" lon="8.192711257544204"><ele>6.571428571428571</ele><time>2026-04-12T09:58:14Z</time></trkpt><trkpt lat="44.01641150618543" lon="8.192810288063528"><ele>6.428571428571429</ele><time>2026-04-12T09:58:18Z</time></trkpt><trkpt lat="44.01643615024995" lon="8.192903839959431"><ele>6.285714285714286</ele><time>2026-04-12T09:58:21Z</time></trkpt><trkpt lat="44.016419688233775" lon="8.19299026251527"><ele>6.142857142857142</ele><time>2026-04-12T10:11:04Z</time></trkpt><trkpt lat="44.0163853999442" lon="8.192904521989636"><ele>6.0</ele><time>2026-04-12T10:23:17Z</time></trkpt><trkpt lat="44.01643378311381" lon="8.192974068121279"><ele>6.0</ele><time>2026-04-12T10:30:00Z</time></trkpt></trkseg></trk></gpx>